<?xml version="1.0" encoding="UTF-8" standalone="no" ?>
<gpx xmlns="http://www.topografix.com/GPX/1/1" xmlns:xsi="http://www.w3.org/2001/XMLSchema-instance" xsi:schemaLocation="http://www.topografix.com/GPX/1/1 http://www.topografix.com/GPX/1/1/gpx.xsd" version="1.1" creator="VisuGPX - https://www.visugpx.com">
  <metadata>
    <name>tayrac 16 juillet 2016</name>
    <desc><![CDATA[tayrac- st maurin]]></desc>
  </metadata>
  <trk>
    <name><![CDATA[Tracé]]></name>
    <trkseg>
      <trkpt lat="44.19699" lon="0.84277">
        <ele>40.99</ele>
        <time>2016-07-23T06:27:46Z</time>
      </trkpt>
      <trkpt lat="44.19701" lon="0.84261">
        <ele>41.47</ele>
        <time>2016-07-23T06:28:03Z</time>
      </trkpt>
      <trkpt lat="44.19704" lon="0.84249">
        <ele>41.95</ele>
        <time>2016-07-23T06:28:13Z</time>
      </trkpt>
      <trkpt lat="44.19708" lon="0.84238">
        <ele>41.95</ele>
        <time>2016-07-23T06:28:24Z</time>
      </trkpt>
      <trkpt lat="44.19708" lon="0.84226">
        <ele>41.47</ele>
        <time>2016-07-23T06:28:35Z</time>
      </trkpt>
      <trkpt lat="44.19711" lon="0.84213">
        <ele>40.99</ele>
        <time>2016-07-23T06:28:45Z</time>
      </trkpt>
      <trkpt lat="44.19711" lon="0.84198">
        <ele>40.99</ele>
        <time>2016-07-23T06:28:57Z</time>
      </trkpt>
      <trkpt lat="44.19706" lon="0.8419">
        <ele>40.99</ele>
        <time>2016-07-23T06:29:12Z</time>
      </trkpt>
      <trkpt lat="44.19698" lon="0.84185">
        <ele>40.03</ele>
        <time>2016-07-23T06:29:25Z</time>
      </trkpt>
      <trkpt lat="44.19693" lon="0.84182">
        <ele>39.07</ele>
        <time>2016-07-23T06:29:35Z</time>
      </trkpt>
      <trkpt lat="44.19685" lon="0.84178">
        <ele>39.07</ele>
        <time>2016-07-23T06:29:49Z</time>
      </trkpt>
      <trkpt lat="44.19674" lon="0.84173">
        <ele>38.11</ele>
        <time>2016-07-23T06:30:07Z</time>
      </trkpt>
      <trkpt lat="44.19663" lon="0.84167">
        <ele>38.11</ele>
        <time>2016-07-23T06:30:19Z</time>
      </trkpt>
      <trkpt lat="44.19652" lon="0.84164">
        <ele>38.11</ele>
        <time>2016-07-23T06:30:28Z</time>
      </trkpt>
      <trkpt lat="44.19642" lon="0.84157">
        <ele>38.59</ele>
        <time>2016-07-23T06:30:41Z</time>
      </trkpt>
      <trkpt lat="44.19632" lon="0.84147">
        <ele>38.11</ele>
        <time>2016-07-23T06:30:52Z</time>
      </trkpt>
      <trkpt lat="44.1962" lon="0.84142">
        <ele>38.11</ele>
        <time>2016-07-23T06:31:01Z</time>
      </trkpt>
      <trkpt lat="44.19611" lon="0.84137">
        <ele>38.11</ele>
        <time>2016-07-23T06:31:09Z</time>
      </trkpt>
      <trkpt lat="44.19602" lon="0.84132">
        <ele>38.11</ele>
        <time>2016-07-23T06:31:18Z</time>
      </trkpt>
      <trkpt lat="44.19592" lon="0.84126">
        <ele>38.11</ele>
        <time>2016-07-23T06:31:28Z</time>
      </trkpt>
      <trkpt lat="44.19583" lon="0.8412">
        <ele>38.11</ele>
        <time>2016-07-23T06:31:37Z</time>
      </trkpt>
      <trkpt lat="44.19573" lon="0.84116">
        <ele>38.11</ele>
        <time>2016-07-23T06:31:47Z</time>
      </trkpt>
      <trkpt lat="44.19564" lon="0.84112">
        <ele>38.59</ele>
        <time>2016-07-23T06:31:56Z</time>
      </trkpt>
      <trkpt lat="44.19554" lon="0.84105">
        <ele>38.11</ele>
        <time>2016-07-23T06:32:05Z</time>
      </trkpt>
      <trkpt lat="44.19545" lon="0.84099">
        <ele>37.63</ele>
        <time>2016-07-23T06:32:15Z</time>
      </trkpt>
      <trkpt lat="44.19536" lon="0.84094">
        <ele>37.63</ele>
        <time>2016-07-23T06:32:24Z</time>
      </trkpt>
      <trkpt lat="44.19526" lon="0.84087">
        <ele>38.11</ele>
        <time>2016-07-23T06:32:33Z</time>
      </trkpt>
      <trkpt lat="44.19514" lon="0.84081">
        <ele>38.11</ele>
        <time>2016-07-23T06:32:45Z</time>
      </trkpt>
      <trkpt lat="44.19503" lon="0.84074">
        <ele>38.11</ele>
        <time>2016-07-23T06:32:56Z</time>
      </trkpt>
      <trkpt lat="44.19493" lon="0.84069">
        <ele>38.59</ele>
        <time>2016-07-23T06:33:05Z</time>
      </trkpt>
      <trkpt lat="44.19483" lon="0.84065">
        <ele>38.59</ele>
        <time>2016-07-23T06:33:14Z</time>
      </trkpt>
      <trkpt lat="44.19474" lon="0.84059">
        <ele>38.59</ele>
        <time>2016-07-23T06:33:24Z</time>
      </trkpt>
      <trkpt lat="44.19463" lon="0.84053">
        <ele>38.59</ele>
        <time>2016-07-23T06:33:34Z</time>
      </trkpt>
      <trkpt lat="44.19454" lon="0.84048">
        <ele>38.59</ele>
        <time>2016-07-23T06:33:43Z</time>
      </trkpt>
      <trkpt lat="44.19443" lon="0.84043">
        <ele>38.59</ele>
        <time>2016-07-23T06:33:52Z</time>
      </trkpt>
      <trkpt lat="44.19434" lon="0.84038">
        <ele>38.59</ele>
        <time>2016-07-23T06:34:01Z</time>
      </trkpt>
      <trkpt lat="44.19424" lon="0.84031">
        <ele>39.07</ele>
        <time>2016-07-23T06:34:12Z</time>
      </trkpt>
      <trkpt lat="44.19413" lon="0.84024">
        <ele>39.07</ele>
        <time>2016-07-23T06:34:22Z</time>
      </trkpt>
      <trkpt lat="44.19404" lon="0.84018">
        <ele>39.07</ele>
        <time>2016-07-23T06:34:30Z</time>
      </trkpt>
      <trkpt lat="44.19394" lon="0.84013">
        <ele>39.07</ele>
        <time>2016-07-23T06:34:39Z</time>
      </trkpt>
      <trkpt lat="44.19384" lon="0.84007">
        <ele>39.07</ele>
        <time>2016-07-23T06:34:49Z</time>
      </trkpt>
      <trkpt lat="44.19372" lon="0.84001">
        <ele>39.07</ele>
        <time>2016-07-23T06:35:00Z</time>
      </trkpt>
      <trkpt lat="44.19364" lon="0.83992">
        <ele>39.07</ele>
        <time>2016-07-23T06:35:08Z</time>
      </trkpt>
      <trkpt lat="44.19354" lon="0.83986">
        <ele>39.55</ele>
        <time>2016-07-23T06:35:16Z</time>
      </trkpt>
      <trkpt lat="44.19346" lon="0.83983">
        <ele>39.55</ele>
        <time>2016-07-23T06:35:26Z</time>
      </trkpt>
      <trkpt lat="44.19336" lon="0.83977">
        <ele>40.51</ele>
        <time>2016-07-23T06:35:35Z</time>
      </trkpt>
      <trkpt lat="44.19328" lon="0.8397">
        <ele>40.99</ele>
        <time>2016-07-23T06:35:44Z</time>
      </trkpt>
      <trkpt lat="44.19319" lon="0.8396">
        <ele>40.99</ele>
        <time>2016-07-23T06:35:54Z</time>
      </trkpt>
      <trkpt lat="44.19309" lon="0.83954">
        <ele>40.99</ele>
        <time>2016-07-23T06:36:03Z</time>
      </trkpt>
      <trkpt lat="44.193" lon="0.8395">
        <ele>41.47</ele>
        <time>2016-07-23T06:36:11Z</time>
      </trkpt>
      <trkpt lat="44.19292" lon="0.83946">
        <ele>41.47</ele>
        <time>2016-07-23T06:36:21Z</time>
      </trkpt>
      <trkpt lat="44.19282" lon="0.83943">
        <ele>41.47</ele>
        <time>2016-07-23T06:36:32Z</time>
      </trkpt>
      <trkpt lat="44.19271" lon="0.8394">
        <ele>41.95</ele>
        <time>2016-07-23T06:36:42Z</time>
      </trkpt>
      <trkpt lat="44.19261" lon="0.83935">
        <ele>41.95</ele>
        <time>2016-07-23T06:36:51Z</time>
      </trkpt>
      <trkpt lat="44.19251" lon="0.83932">
        <ele>41.95</ele>
        <time>2016-07-23T06:37:01Z</time>
      </trkpt>
      <trkpt lat="44.1924" lon="0.83927">
        <ele>41.95</ele>
        <time>2016-07-23T06:37:10Z</time>
      </trkpt>
      <trkpt lat="44.19231" lon="0.83924">
        <ele>42.44</ele>
        <time>2016-07-23T06:37:19Z</time>
      </trkpt>
      <trkpt lat="44.19222" lon="0.83919">
        <ele>43.4</ele>
        <time>2016-07-23T06:37:28Z</time>
      </trkpt>
      <trkpt lat="44.19213" lon="0.83915">
        <ele>43.88</ele>
        <time>2016-07-23T06:37:38Z</time>
      </trkpt>
      <trkpt lat="44.19203" lon="0.83912">
        <ele>43.88</ele>
        <time>2016-07-23T06:37:46Z</time>
      </trkpt>
      <trkpt lat="44.19194" lon="0.83909">
        <ele>44.36</ele>
        <time>2016-07-23T06:37:56Z</time>
      </trkpt>
      <trkpt lat="44.19185" lon="0.83904">
        <ele>44.36</ele>
        <time>2016-07-23T06:38:04Z</time>
      </trkpt>
      <trkpt lat="44.19176" lon="0.839">
        <ele>44.84</ele>
        <time>2016-07-23T06:38:14Z</time>
      </trkpt>
      <trkpt lat="44.19167" lon="0.83894">
        <ele>45.32</ele>
        <time>2016-07-23T06:38:24Z</time>
      </trkpt>
      <trkpt lat="44.19158" lon="0.83888">
        <ele>45.8</ele>
        <time>2016-07-23T06:38:34Z</time>
      </trkpt>
      <trkpt lat="44.19149" lon="0.83888">
        <ele>46.28</ele>
        <time>2016-07-23T06:38:44Z</time>
      </trkpt>
      <trkpt lat="44.1914" lon="0.83895">
        <ele>47.72</ele>
        <time>2016-07-23T06:38:55Z</time>
      </trkpt>
      <trkpt lat="44.19135" lon="0.83907">
        <ele>49.16</ele>
        <time>2016-07-23T06:39:06Z</time>
      </trkpt>
      <trkpt lat="44.19132" lon="0.83921">
        <ele>50.13</ele>
        <time>2016-07-23T06:39:17Z</time>
      </trkpt>
      <trkpt lat="44.19131" lon="0.83936">
        <ele>50.61</ele>
        <time>2016-07-23T06:39:27Z</time>
      </trkpt>
      <trkpt lat="44.19131" lon="0.83949">
        <ele>51.57</ele>
        <time>2016-07-23T06:39:36Z</time>
      </trkpt>
      <trkpt lat="44.1913" lon="0.83962">
        <ele>51.57</ele>
        <time>2016-07-23T06:39:45Z</time>
      </trkpt>
      <trkpt lat="44.19131" lon="0.83977">
        <ele>52.05</ele>
        <time>2016-07-23T06:39:55Z</time>
      </trkpt>
      <trkpt lat="44.1913" lon="0.8399">
        <ele>52.53</ele>
        <time>2016-07-23T06:40:04Z</time>
      </trkpt>
      <trkpt lat="44.1913" lon="0.84001">
        <ele>53.49</ele>
        <time>2016-07-23T06:40:13Z</time>
      </trkpt>
      <trkpt lat="44.19129" lon="0.84015">
        <ele>53.49</ele>
        <time>2016-07-23T06:40:23Z</time>
      </trkpt>
      <trkpt lat="44.19129" lon="0.84029">
        <ele>53.97</ele>
        <time>2016-07-23T06:40:33Z</time>
      </trkpt>
      <trkpt lat="44.19129" lon="0.84043">
        <ele>53.97</ele>
        <time>2016-07-23T06:40:42Z</time>
      </trkpt>
      <trkpt lat="44.19127" lon="0.84056">
        <ele>53.97</ele>
        <time>2016-07-23T06:40:50Z</time>
      </trkpt>
      <trkpt lat="44.19125" lon="0.84068">
        <ele>54.45</ele>
        <time>2016-07-23T06:40:58Z</time>
      </trkpt>
      <trkpt lat="44.19123" lon="0.84081">
        <ele>54.45</ele>
        <time>2016-07-23T06:41:06Z</time>
      </trkpt>
      <trkpt lat="44.19124" lon="0.84095">
        <ele>54.45</ele>
        <time>2016-07-23T06:41:16Z</time>
      </trkpt>
      <trkpt lat="44.19122" lon="0.8411">
        <ele>54.45</ele>
        <time>2016-07-23T06:41:25Z</time>
      </trkpt>
      <trkpt lat="44.19121" lon="0.84123">
        <ele>54.93</ele>
        <time>2016-07-23T06:41:34Z</time>
      </trkpt>
      <trkpt lat="44.1912" lon="0.84137">
        <ele>54.93</ele>
        <time>2016-07-23T06:41:43Z</time>
      </trkpt>
      <trkpt lat="44.1912" lon="0.84151">
        <ele>54.93</ele>
        <time>2016-07-23T06:41:52Z</time>
      </trkpt>
      <trkpt lat="44.19119" lon="0.84164">
        <ele>54.93</ele>
        <time>2016-07-23T06:42:01Z</time>
      </trkpt>
      <trkpt lat="44.19118" lon="0.84176">
        <ele>54.93</ele>
        <time>2016-07-23T06:42:10Z</time>
      </trkpt>
      <trkpt lat="44.19117" lon="0.84191">
        <ele>55.41</ele>
        <time>2016-07-23T06:42:19Z</time>
      </trkpt>
      <trkpt lat="44.19118" lon="0.84204">
        <ele>55.41</ele>
        <time>2016-07-23T06:42:27Z</time>
      </trkpt>
      <trkpt lat="44.19119" lon="0.84216">
        <ele>55.41</ele>
        <time>2016-07-23T06:42:36Z</time>
      </trkpt>
      <trkpt lat="44.1912" lon="0.8423">
        <ele>55.41</ele>
        <time>2016-07-23T06:42:44Z</time>
      </trkpt>
      <trkpt lat="44.1912" lon="0.84243">
        <ele>55.41</ele>
        <time>2016-07-23T06:42:52Z</time>
      </trkpt>
      <trkpt lat="44.19122" lon="0.84256">
        <ele>55.89</ele>
        <time>2016-07-23T06:43:00Z</time>
      </trkpt>
      <trkpt lat="44.19123" lon="0.84269">
        <ele>55.89</ele>
        <time>2016-07-23T06:43:10Z</time>
      </trkpt>
      <trkpt lat="44.19124" lon="0.84284">
        <ele>55.89</ele>
        <time>2016-07-23T06:43:19Z</time>
      </trkpt>
      <trkpt lat="44.19125" lon="0.84297">
        <ele>55.89</ele>
        <time>2016-07-23T06:43:26Z</time>
      </trkpt>
      <trkpt lat="44.19126" lon="0.8431">
        <ele>55.89</ele>
        <time>2016-07-23T06:43:34Z</time>
      </trkpt>
      <trkpt lat="44.19128" lon="0.84322">
        <ele>55.89</ele>
        <time>2016-07-23T06:43:42Z</time>
      </trkpt>
      <trkpt lat="44.19129" lon="0.84337">
        <ele>56.37</ele>
        <time>2016-07-23T06:43:52Z</time>
      </trkpt>
      <trkpt lat="44.1913" lon="0.8435">
        <ele>56.37</ele>
        <time>2016-07-23T06:44:00Z</time>
      </trkpt>
      <trkpt lat="44.19132" lon="0.84364">
        <ele>55.41</ele>
        <time>2016-07-23T06:44:09Z</time>
      </trkpt>
      <trkpt lat="44.19133" lon="0.84377">
        <ele>55.41</ele>
        <time>2016-07-23T06:44:17Z</time>
      </trkpt>
      <trkpt lat="44.19134" lon="0.84391">
        <ele>54.93</ele>
        <time>2016-07-23T06:44:26Z</time>
      </trkpt>
      <trkpt lat="44.19135" lon="0.84405">
        <ele>54.45</ele>
        <time>2016-07-23T06:44:35Z</time>
      </trkpt>
      <trkpt lat="44.19135" lon="0.84419">
        <ele>54.93</ele>
        <time>2016-07-23T06:44:45Z</time>
      </trkpt>
      <trkpt lat="44.19135" lon="0.84434">
        <ele>54.93</ele>
        <time>2016-07-23T06:44:54Z</time>
      </trkpt>
      <trkpt lat="44.19135" lon="0.84449">
        <ele>54.93</ele>
        <time>2016-07-23T06:45:03Z</time>
      </trkpt>
      <trkpt lat="44.19134" lon="0.84463">
        <ele>54.93</ele>
        <time>2016-07-23T06:45:14Z</time>
      </trkpt>
      <trkpt lat="44.19132" lon="0.84479">
        <ele>54.93</ele>
        <time>2016-07-23T06:45:23Z</time>
      </trkpt>
      <trkpt lat="44.1913" lon="0.84492">
        <ele>55.41</ele>
        <time>2016-07-23T06:45:31Z</time>
      </trkpt>
      <trkpt lat="44.19127" lon="0.84507">
        <ele>55.41</ele>
        <time>2016-07-23T06:45:41Z</time>
      </trkpt>
      <trkpt lat="44.19124" lon="0.84521">
        <ele>55.41</ele>
        <time>2016-07-23T06:45:50Z</time>
      </trkpt>
      <trkpt lat="44.19121" lon="0.84534">
        <ele>55.41</ele>
        <time>2016-07-23T06:46:00Z</time>
      </trkpt>
      <trkpt lat="44.19118" lon="0.84548">
        <ele>55.89</ele>
        <time>2016-07-23T06:46:09Z</time>
      </trkpt>
      <trkpt lat="44.19115" lon="0.84561">
        <ele>55.89</ele>
        <time>2016-07-23T06:46:18Z</time>
      </trkpt>
      <trkpt lat="44.19112" lon="0.84575">
        <ele>55.89</ele>
        <time>2016-07-23T06:46:27Z</time>
      </trkpt>
      <trkpt lat="44.1911" lon="0.84588">
        <ele>55.89</ele>
        <time>2016-07-23T06:46:36Z</time>
      </trkpt>
      <trkpt lat="44.19108" lon="0.84603">
        <ele>56.37</ele>
        <time>2016-07-23T06:46:46Z</time>
      </trkpt>
      <trkpt lat="44.19105" lon="0.84616">
        <ele>56.37</ele>
        <time>2016-07-23T06:46:54Z</time>
      </trkpt>
      <trkpt lat="44.19104" lon="0.84628">
        <ele>56.37</ele>
        <time>2016-07-23T06:47:03Z</time>
      </trkpt>
      <trkpt lat="44.19102" lon="0.84642">
        <ele>56.37</ele>
        <time>2016-07-23T06:47:12Z</time>
      </trkpt>
      <trkpt lat="44.191" lon="0.84655">
        <ele>56.86</ele>
        <time>2016-07-23T06:47:21Z</time>
      </trkpt>
      <trkpt lat="44.19098" lon="0.84668">
        <ele>56.86</ele>
        <time>2016-07-23T06:47:29Z</time>
      </trkpt>
      <trkpt lat="44.19097" lon="0.84681">
        <ele>56.86</ele>
        <time>2016-07-23T06:47:39Z</time>
      </trkpt>
      <trkpt lat="44.19094" lon="0.84694">
        <ele>56.37</ele>
        <time>2016-07-23T06:47:47Z</time>
      </trkpt>
      <trkpt lat="44.19091" lon="0.84706">
        <ele>56.37</ele>
        <time>2016-07-23T06:47:55Z</time>
      </trkpt>
      <trkpt lat="44.19089" lon="0.8472">
        <ele>56.37</ele>
        <time>2016-07-23T06:48:05Z</time>
      </trkpt>
      <trkpt lat="44.19085" lon="0.84733">
        <ele>56.37</ele>
        <time>2016-07-23T06:48:13Z</time>
      </trkpt>
      <trkpt lat="44.19082" lon="0.84747">
        <ele>55.89</ele>
        <time>2016-07-23T06:48:22Z</time>
      </trkpt>
      <trkpt lat="44.19078" lon="0.8476">
        <ele>55.89</ele>
        <time>2016-07-23T06:48:32Z</time>
      </trkpt>
      <trkpt lat="44.19076" lon="0.84773">
        <ele>55.89</ele>
        <time>2016-07-23T06:48:40Z</time>
      </trkpt>
      <trkpt lat="44.19074" lon="0.84786">
        <ele>56.37</ele>
        <time>2016-07-23T06:48:48Z</time>
      </trkpt>
      <trkpt lat="44.19073" lon="0.84799">
        <ele>56.37</ele>
        <time>2016-07-23T06:48:58Z</time>
      </trkpt>
      <trkpt lat="44.19073" lon="0.84814">
        <ele>56.37</ele>
        <time>2016-07-23T06:49:07Z</time>
      </trkpt>
      <trkpt lat="44.19073" lon="0.84828">
        <ele>56.37</ele>
        <time>2016-07-23T06:49:17Z</time>
      </trkpt>
      <trkpt lat="44.19073" lon="0.84842">
        <ele>56.37</ele>
        <time>2016-07-23T06:49:25Z</time>
      </trkpt>
      <trkpt lat="44.19074" lon="0.84855">
        <ele>56.86</ele>
        <time>2016-07-23T06:49:33Z</time>
      </trkpt>
      <trkpt lat="44.19074" lon="0.8487">
        <ele>56.86</ele>
        <time>2016-07-23T06:49:43Z</time>
      </trkpt>
      <trkpt lat="44.19074" lon="0.84884">
        <ele>56.86</ele>
        <time>2016-07-23T06:49:52Z</time>
      </trkpt>
      <trkpt lat="44.19075" lon="0.84898">
        <ele>56.86</ele>
        <time>2016-07-23T06:50:02Z</time>
      </trkpt>
      <trkpt lat="44.19075" lon="0.84912">
        <ele>57.34</ele>
        <time>2016-07-23T06:50:12Z</time>
      </trkpt>
      <trkpt lat="44.19077" lon="0.84927">
        <ele>57.34</ele>
        <time>2016-07-23T06:50:22Z</time>
      </trkpt>
      <trkpt lat="44.19078" lon="0.84941">
        <ele>57.34</ele>
        <time>2016-07-23T06:50:32Z</time>
      </trkpt>
      <trkpt lat="44.19078" lon="0.84955">
        <ele>57.34</ele>
        <time>2016-07-23T06:50:40Z</time>
      </trkpt>
      <trkpt lat="44.1908" lon="0.84968">
        <ele>57.34</ele>
        <time>2016-07-23T06:50:50Z</time>
      </trkpt>
      <trkpt lat="44.1908" lon="0.84983">
        <ele>57.82</ele>
        <time>2016-07-23T06:50:59Z</time>
      </trkpt>
      <trkpt lat="44.19083" lon="0.84997">
        <ele>57.82</ele>
        <time>2016-07-23T06:51:08Z</time>
      </trkpt>
      <trkpt lat="44.19085" lon="0.8501">
        <ele>57.82</ele>
        <time>2016-07-23T06:51:16Z</time>
      </trkpt>
      <trkpt lat="44.19085" lon="0.85023">
        <ele>57.82</ele>
        <time>2016-07-23T06:51:26Z</time>
      </trkpt>
      <trkpt lat="44.19086" lon="0.85037">
        <ele>57.82</ele>
        <time>2016-07-23T06:51:34Z</time>
      </trkpt>
      <trkpt lat="44.19086" lon="0.8505">
        <ele>57.34</ele>
        <time>2016-07-23T06:51:42Z</time>
      </trkpt>
      <trkpt lat="44.19086" lon="0.85064">
        <ele>56.86</ele>
        <time>2016-07-23T06:51:51Z</time>
      </trkpt>
      <trkpt lat="44.19086" lon="0.85078">
        <ele>56.86</ele>
        <time>2016-07-23T06:52:01Z</time>
      </trkpt>
      <trkpt lat="44.19086" lon="0.85091">
        <ele>57.34</ele>
        <time>2016-07-23T06:52:11Z</time>
      </trkpt>
      <trkpt lat="44.19086" lon="0.85104">
        <ele>56.37</ele>
        <time>2016-07-23T06:52:22Z</time>
      </trkpt>
      <trkpt lat="44.19084" lon="0.85117">
        <ele>56.86</ele>
        <time>2016-07-23T06:52:33Z</time>
      </trkpt>
      <trkpt lat="44.19083" lon="0.8513">
        <ele>56.86</ele>
        <time>2016-07-23T06:52:43Z</time>
      </trkpt>
      <trkpt lat="44.19082" lon="0.85145">
        <ele>57.82</ele>
        <time>2016-07-23T06:52:53Z</time>
      </trkpt>
      <trkpt lat="44.19079" lon="0.85157">
        <ele>57.82</ele>
        <time>2016-07-23T06:53:04Z</time>
      </trkpt>
      <trkpt lat="44.19077" lon="0.85171">
        <ele>60.22</ele>
        <time>2016-07-23T06:53:14Z</time>
      </trkpt>
      <trkpt lat="44.19075" lon="0.85184">
        <ele>58.3</ele>
        <time>2016-07-23T06:53:23Z</time>
      </trkpt>
      <trkpt lat="44.19075" lon="0.85198">
        <ele>58.3</ele>
        <time>2016-07-23T06:53:32Z</time>
      </trkpt>
      <trkpt lat="44.19074" lon="0.85211">
        <ele>58.3</ele>
        <time>2016-07-23T06:53:41Z</time>
      </trkpt>
      <trkpt lat="44.19073" lon="0.85225">
        <ele>58.3</ele>
        <time>2016-07-23T06:53:50Z</time>
      </trkpt>
      <trkpt lat="44.19071" lon="0.85238">
        <ele>58.78</ele>
        <time>2016-07-23T06:53:58Z</time>
      </trkpt>
      <trkpt lat="44.19071" lon="0.85252">
        <ele>58.78</ele>
        <time>2016-07-23T06:54:06Z</time>
      </trkpt>
      <trkpt lat="44.1907" lon="0.85265">
        <ele>58.3</ele>
        <time>2016-07-23T06:54:14Z</time>
      </trkpt>
      <trkpt lat="44.19068" lon="0.85277">
        <ele>58.3</ele>
        <time>2016-07-23T06:54:22Z</time>
      </trkpt>
      <trkpt lat="44.19068" lon="0.8529">
        <ele>58.3</ele>
        <time>2016-07-23T06:54:30Z</time>
      </trkpt>
      <trkpt lat="44.19068" lon="0.85303">
        <ele>58.78</ele>
        <time>2016-07-23T06:54:39Z</time>
      </trkpt>
      <trkpt lat="44.19067" lon="0.85317">
        <ele>58.78</ele>
        <time>2016-07-23T06:54:48Z</time>
      </trkpt>
      <trkpt lat="44.19066" lon="0.85331">
        <ele>58.78</ele>
        <time>2016-07-23T06:54:57Z</time>
      </trkpt>
      <trkpt lat="44.19066" lon="0.85345">
        <ele>58.78</ele>
        <time>2016-07-23T06:55:05Z</time>
      </trkpt>
      <trkpt lat="44.19064" lon="0.85359">
        <ele>58.78</ele>
        <time>2016-07-23T06:55:14Z</time>
      </trkpt>
      <trkpt lat="44.19064" lon="0.85373">
        <ele>59.26</ele>
        <time>2016-07-23T06:55:23Z</time>
      </trkpt>
      <trkpt lat="44.19064" lon="0.85386">
        <ele>59.26</ele>
        <time>2016-07-23T06:55:32Z</time>
      </trkpt>
      <trkpt lat="44.19064" lon="0.854">
        <ele>59.26</ele>
        <time>2016-07-23T06:55:40Z</time>
      </trkpt>
      <trkpt lat="44.19064" lon="0.85413">
        <ele>59.26</ele>
        <time>2016-07-23T06:55:49Z</time>
      </trkpt>
      <trkpt lat="44.19065" lon="0.85427">
        <ele>59.26</ele>
        <time>2016-07-23T06:55:58Z</time>
      </trkpt>
      <trkpt lat="44.19066" lon="0.8544">
        <ele>59.74</ele>
        <time>2016-07-23T06:56:07Z</time>
      </trkpt>
      <trkpt lat="44.19066" lon="0.85453">
        <ele>59.74</ele>
        <time>2016-07-23T06:56:17Z</time>
      </trkpt>
      <trkpt lat="44.19068" lon="0.85465">
        <ele>59.74</ele>
        <time>2016-07-23T06:56:26Z</time>
      </trkpt>
      <trkpt lat="44.1907" lon="0.8548">
        <ele>59.74</ele>
        <time>2016-07-23T06:56:36Z</time>
      </trkpt>
      <trkpt lat="44.19071" lon="0.85492">
        <ele>59.74</ele>
        <time>2016-07-23T06:56:45Z</time>
      </trkpt>
      <trkpt lat="44.19072" lon="0.85506">
        <ele>59.74</ele>
        <time>2016-07-23T06:56:55Z</time>
      </trkpt>
      <trkpt lat="44.19073" lon="0.85519">
        <ele>59.74</ele>
        <time>2016-07-23T06:57:03Z</time>
      </trkpt>
      <trkpt lat="44.19074" lon="0.85532">
        <ele>60.22</ele>
        <time>2016-07-23T06:57:13Z</time>
      </trkpt>
      <trkpt lat="44.19075" lon="0.85546">
        <ele>60.22</ele>
        <time>2016-07-23T06:57:22Z</time>
      </trkpt>
      <trkpt lat="44.19076" lon="0.85559">
        <ele>60.22</ele>
        <time>2016-07-23T06:57:32Z</time>
      </trkpt>
      <trkpt lat="44.19076" lon="0.85572">
        <ele>60.22</ele>
        <time>2016-07-23T06:57:40Z</time>
      </trkpt>
      <trkpt lat="44.19077" lon="0.85584">
        <ele>61.66</ele>
        <time>2016-07-23T06:57:48Z</time>
      </trkpt>
      <trkpt lat="44.19077" lon="0.85599">
        <ele>61.66</ele>
        <time>2016-07-23T06:57:58Z</time>
      </trkpt>
      <trkpt lat="44.19077" lon="0.85612">
        <ele>61.66</ele>
        <time>2016-07-23T06:58:07Z</time>
      </trkpt>
      <trkpt lat="44.19077" lon="0.85625">
        <ele>61.66</ele>
        <time>2016-07-23T06:58:16Z</time>
      </trkpt>
      <trkpt lat="44.19076" lon="0.85639">
        <ele>62.14</ele>
        <time>2016-07-23T06:58:26Z</time>
      </trkpt>
      <trkpt lat="44.19075" lon="0.85652">
        <ele>62.62</ele>
        <time>2016-07-23T06:58:36Z</time>
      </trkpt>
      <trkpt lat="44.19074" lon="0.85665">
        <ele>63.1</ele>
        <time>2016-07-23T06:58:46Z</time>
      </trkpt>
      <trkpt lat="44.19074" lon="0.85679">
        <ele>63.58</ele>
        <time>2016-07-23T06:58:56Z</time>
      </trkpt>
      <trkpt lat="44.19074" lon="0.85693">
        <ele>63.58</ele>
        <time>2016-07-23T06:59:06Z</time>
      </trkpt>
      <trkpt lat="44.19074" lon="0.85706">
        <ele>64.55</ele>
        <time>2016-07-23T06:59:16Z</time>
      </trkpt>
      <trkpt lat="44.19072" lon="0.85719">
        <ele>65.03</ele>
        <time>2016-07-23T06:59:26Z</time>
      </trkpt>
      <trkpt lat="44.19072" lon="0.85734">
        <ele>66.47</ele>
        <time>2016-07-23T06:59:37Z</time>
      </trkpt>
      <trkpt lat="44.19072" lon="0.85748">
        <ele>67.43</ele>
        <time>2016-07-23T06:59:48Z</time>
      </trkpt>
      <trkpt lat="44.19073" lon="0.85762">
        <ele>67.91</ele>
        <time>2016-07-23T06:59:59Z</time>
      </trkpt>
      <trkpt lat="44.19073" lon="0.85777">
        <ele>68.39</ele>
        <time>2016-07-23T07:00:10Z</time>
      </trkpt>
      <trkpt lat="44.19072" lon="0.85792">
        <ele>68.87</ele>
        <time>2016-07-23T07:00:20Z</time>
      </trkpt>
      <trkpt lat="44.19071" lon="0.85806">
        <ele>69.35</ele>
        <time>2016-07-23T07:00:30Z</time>
      </trkpt>
      <trkpt lat="44.19068" lon="0.85819">
        <ele>69.83</ele>
        <time>2016-07-23T07:00:41Z</time>
      </trkpt>
      <trkpt lat="44.19068" lon="0.85833">
        <ele>70.79</ele>
        <time>2016-07-23T07:00:52Z</time>
      </trkpt>
      <trkpt lat="44.19072" lon="0.85845">
        <ele>70.79</ele>
        <time>2016-07-23T07:01:03Z</time>
      </trkpt>
      <trkpt lat="44.19077" lon="0.85857">
        <ele>69.35</ele>
        <time>2016-07-23T07:01:12Z</time>
      </trkpt>
      <trkpt lat="44.19081" lon="0.85869">
        <ele>68.87</ele>
        <time>2016-07-23T07:01:21Z</time>
      </trkpt>
      <trkpt lat="44.19083" lon="0.85881">
        <ele>68.39</ele>
        <time>2016-07-23T07:01:29Z</time>
      </trkpt>
      <trkpt lat="44.19086" lon="0.85893">
        <ele>67.91</ele>
        <time>2016-07-23T07:01:46Z</time>
      </trkpt>
      <trkpt lat="44.19088" lon="0.85905">
        <ele>67.43</ele>
        <time>2016-07-23T07:01:56Z</time>
      </trkpt>
      <trkpt lat="44.1909" lon="0.85917">
        <ele>67.43</ele>
        <time>2016-07-23T07:02:06Z</time>
      </trkpt>
      <trkpt lat="44.19092" lon="0.8593">
        <ele>66.95</ele>
        <time>2016-07-23T07:02:16Z</time>
      </trkpt>
      <trkpt lat="44.19094" lon="0.85943">
        <ele>66.47</ele>
        <time>2016-07-23T07:02:26Z</time>
      </trkpt>
      <trkpt lat="44.19095" lon="0.85955">
        <ele>65.99</ele>
        <time>2016-07-23T07:02:36Z</time>
      </trkpt>
      <trkpt lat="44.19097" lon="0.85969">
        <ele>65.99</ele>
        <time>2016-07-23T07:02:47Z</time>
      </trkpt>
      <trkpt lat="44.19103" lon="0.85982">
        <ele>65.51</ele>
        <time>2016-07-23T07:02:59Z</time>
      </trkpt>
      <trkpt lat="44.19107" lon="0.85996">
        <ele>64.55</ele>
        <time>2016-07-23T07:03:10Z</time>
      </trkpt>
      <trkpt lat="44.19113" lon="0.86011">
        <ele>63.58</ele>
        <time>2016-07-23T07:03:25Z</time>
      </trkpt>
      <trkpt lat="44.19118" lon="0.86027">
        <ele>63.1</ele>
        <time>2016-07-23T07:03:39Z</time>
      </trkpt>
      <trkpt lat="44.19121" lon="0.86041">
        <ele>62.14</ele>
        <time>2016-07-23T07:03:52Z</time>
      </trkpt>
      <trkpt lat="44.19126" lon="0.86053">
        <ele>61.66</ele>
        <time>2016-07-23T07:04:02Z</time>
      </trkpt>
      <trkpt lat="44.19128" lon="0.86066">
        <ele>61.18</ele>
        <time>2016-07-23T07:04:11Z</time>
      </trkpt>
      <trkpt lat="44.19127" lon="0.8608">
        <ele>61.18</ele>
        <time>2016-07-23T07:04:22Z</time>
      </trkpt>
      <trkpt lat="44.19126" lon="0.86093">
        <ele>61.66</ele>
        <time>2016-07-23T07:04:31Z</time>
      </trkpt>
      <trkpt lat="44.19124" lon="0.86107">
        <ele>61.66</ele>
        <time>2016-07-23T07:04:41Z</time>
      </trkpt>
      <trkpt lat="44.19124" lon="0.86121">
        <ele>61.66</ele>
        <time>2016-07-23T07:04:52Z</time>
      </trkpt>
      <trkpt lat="44.19123" lon="0.86136">
        <ele>61.66</ele>
        <time>2016-07-23T07:05:03Z</time>
      </trkpt>
      <trkpt lat="44.19123" lon="0.86153">
        <ele>61.66</ele>
        <time>2016-07-23T07:05:15Z</time>
      </trkpt>
      <trkpt lat="44.19122" lon="0.86169">
        <ele>63.1</ele>
        <time>2016-07-23T07:05:25Z</time>
      </trkpt>
      <trkpt lat="44.1912" lon="0.86183">
        <ele>63.1</ele>
        <time>2016-07-23T07:05:35Z</time>
      </trkpt>
      <trkpt lat="44.1912" lon="0.86198">
        <ele>63.1</ele>
        <time>2016-07-23T07:05:46Z</time>
      </trkpt>
      <trkpt lat="44.19119" lon="0.86213">
        <ele>63.58</ele>
        <time>2016-07-23T07:05:57Z</time>
      </trkpt>
      <trkpt lat="44.19118" lon="0.86228">
        <ele>63.58</ele>
        <time>2016-07-23T07:06:08Z</time>
      </trkpt>
      <trkpt lat="44.19118" lon="0.86241">
        <ele>64.55</ele>
        <time>2016-07-23T07:06:43Z</time>
      </trkpt>
    </trkseg>
  </trk>
  <trk>
    <name><![CDATA[Tracé actuel: 23 JUIL 2016 09:07]]></name>
    <trkseg>
      <trkpt lat="44.19117" lon="0.86241">
        <ele>103.48</ele>
        <time>2016-07-23T07:07:45Z</time>
      </trkpt>
      <trkpt lat="44.1911" lon="0.86247">
        <ele>78.48</ele>
        <time>2016-07-23T07:08:17Z</time>
      </trkpt>
      <trkpt lat="44.191" lon="0.86246">
        <ele>78.48</ele>
        <time>2016-07-23T07:08:29Z</time>
      </trkpt>
      <trkpt lat="44.19091" lon="0.86246">
        <ele>79.45</ele>
        <time>2016-07-23T07:08:42Z</time>
      </trkpt>
      <trkpt lat="44.19081" lon="0.86244">
        <ele>80.41</ele>
        <time>2016-07-23T07:08:54Z</time>
      </trkpt>
      <trkpt lat="44.19072" lon="0.86242">
        <ele>81.37</ele>
        <time>2016-07-23T07:09:06Z</time>
      </trkpt>
      <trkpt lat="44.19063" lon="0.86242">
        <ele>82.33</ele>
        <time>2016-07-23T07:09:20Z</time>
      </trkpt>
      <trkpt lat="44.19055" lon="0.86239">
        <ele>82.81</ele>
        <time>2016-07-23T07:09:55Z</time>
      </trkpt>
      <trkpt lat="44.19058" lon="0.86251">
        <ele>82.33</ele>
        <time>2016-07-23T07:10:49Z</time>
      </trkpt>
      <trkpt lat="44.19058" lon="0.86263">
        <ele>82.33</ele>
        <time>2016-07-23T07:11:02Z</time>
      </trkpt>
      <trkpt lat="44.19057" lon="0.86277">
        <ele>82.33</ele>
        <time>2016-07-23T07:11:22Z</time>
      </trkpt>
      <trkpt lat="44.19055" lon="0.8629">
        <ele>82.33</ele>
        <time>2016-07-23T07:11:30Z</time>
      </trkpt>
      <trkpt lat="44.19053" lon="0.86304">
        <ele>82.33</ele>
        <time>2016-07-23T07:11:41Z</time>
      </trkpt>
      <trkpt lat="44.19049" lon="0.86327">
        <ele>83.29</ele>
        <time>2016-07-23T07:12:01Z</time>
      </trkpt>
      <trkpt lat="44.19045" lon="0.86347">
        <ele>83.77</ele>
        <time>2016-07-23T07:12:17Z</time>
      </trkpt>
      <trkpt lat="44.19043" lon="0.86363">
        <ele>83.77</ele>
        <time>2016-07-23T07:12:29Z</time>
      </trkpt>
      <trkpt lat="44.19042" lon="0.86382">
        <ele>83.77</ele>
        <time>2016-07-23T07:12:44Z</time>
      </trkpt>
      <trkpt lat="44.19041" lon="0.86403">
        <ele>81.85</ele>
        <time>2016-07-23T07:13:02Z</time>
      </trkpt>
      <trkpt lat="44.1904" lon="0.86424">
        <ele>80.89</ele>
        <time>2016-07-23T07:13:20Z</time>
      </trkpt>
      <trkpt lat="44.19042" lon="0.86444">
        <ele>80.89</ele>
        <time>2016-07-23T07:13:35Z</time>
      </trkpt>
      <trkpt lat="44.19037" lon="0.86477">
        <ele>80.89</ele>
        <time>2016-07-23T07:14:03Z</time>
      </trkpt>
      <trkpt lat="44.19032" lon="0.86497">
        <ele>80.89</ele>
        <time>2016-07-23T07:14:18Z</time>
      </trkpt>
      <trkpt lat="44.19023" lon="0.86546">
        <ele>82.81</ele>
        <time>2016-07-23T07:15:01Z</time>
      </trkpt>
      <trkpt lat="44.19022" lon="0.86569">
        <ele>82.81</ele>
        <time>2016-07-23T07:15:20Z</time>
      </trkpt>
      <trkpt lat="44.19015" lon="0.86585">
        <ele>82.81</ele>
        <time>2016-07-23T07:15:33Z</time>
      </trkpt>
      <trkpt lat="44.19008" lon="0.86613">
        <ele>82.81</ele>
        <time>2016-07-23T07:15:55Z</time>
      </trkpt>
      <trkpt lat="44.19012" lon="0.86634">
        <ele>81.37</ele>
        <time>2016-07-23T07:16:09Z</time>
      </trkpt>
      <trkpt lat="44.19026" lon="0.86652">
        <ele>79.93</ele>
        <time>2016-07-23T07:16:25Z</time>
      </trkpt>
      <trkpt lat="44.19027" lon="0.8668">
        <ele>77.52</ele>
        <time>2016-07-23T07:16:54Z</time>
      </trkpt>
      <trkpt lat="44.19035" lon="0.86695">
        <ele>77.52</ele>
        <time>2016-07-23T07:17:05Z</time>
      </trkpt>
      <trkpt lat="44.1904" lon="0.86712">
        <ele>78.97</ele>
        <time>2016-07-23T07:17:17Z</time>
      </trkpt>
      <trkpt lat="44.19043" lon="0.86725">
        <ele>79.45</ele>
        <time>2016-07-23T07:17:28Z</time>
      </trkpt>
      <trkpt lat="44.19046" lon="0.86739">
        <ele>79.45</ele>
        <time>2016-07-23T07:17:38Z</time>
      </trkpt>
      <trkpt lat="44.19049" lon="0.86753">
        <ele>80.41</ele>
        <time>2016-07-23T07:17:50Z</time>
      </trkpt>
      <trkpt lat="44.19052" lon="0.86767">
        <ele>80.89</ele>
        <time>2016-07-23T07:18:02Z</time>
      </trkpt>
      <trkpt lat="44.19054" lon="0.86782">
        <ele>81.37</ele>
        <time>2016-07-23T07:18:13Z</time>
      </trkpt>
      <trkpt lat="44.19057" lon="0.86797">
        <ele>81.85</ele>
        <time>2016-07-23T07:18:26Z</time>
      </trkpt>
      <trkpt lat="44.19058" lon="0.86812">
        <ele>82.81</ele>
        <time>2016-07-23T07:18:38Z</time>
      </trkpt>
      <trkpt lat="44.19061" lon="0.86827">
        <ele>83.77</ele>
        <time>2016-07-23T07:18:51Z</time>
      </trkpt>
      <trkpt lat="44.19065" lon="0.86842">
        <ele>84.25</ele>
        <time>2016-07-23T07:19:03Z</time>
      </trkpt>
      <trkpt lat="44.19069" lon="0.86856">
        <ele>84.25</ele>
        <time>2016-07-23T07:19:14Z</time>
      </trkpt>
      <trkpt lat="44.19072" lon="0.86873">
        <ele>82.81</ele>
        <time>2016-07-23T07:19:27Z</time>
      </trkpt>
      <trkpt lat="44.19077" lon="0.86888">
        <ele>81.37</ele>
        <time>2016-07-23T07:19:41Z</time>
      </trkpt>
      <trkpt lat="44.1908" lon="0.86905">
        <ele>79.93</ele>
        <time>2016-07-23T07:19:55Z</time>
      </trkpt>
      <trkpt lat="44.19082" lon="0.86923">
        <ele>79.93</ele>
        <time>2016-07-23T07:20:07Z</time>
      </trkpt>
      <trkpt lat="44.19086" lon="0.86939">
        <ele>79.93</ele>
        <time>2016-07-23T07:20:20Z</time>
      </trkpt>
      <trkpt lat="44.19093" lon="0.86952">
        <ele>79.45</ele>
        <time>2016-07-23T07:20:32Z</time>
      </trkpt>
      <trkpt lat="44.19103" lon="0.86962">
        <ele>78</ele>
        <time>2016-07-23T07:20:44Z</time>
      </trkpt>
      <trkpt lat="44.19112" lon="0.86971">
        <ele>76.56</ele>
        <time>2016-07-23T07:20:59Z</time>
      </trkpt>
      <trkpt lat="44.19121" lon="0.86978">
        <ele>75.12</ele>
        <time>2016-07-23T07:21:11Z</time>
      </trkpt>
      <trkpt lat="44.19131" lon="0.86982">
        <ele>73.2</ele>
        <time>2016-07-23T07:21:24Z</time>
      </trkpt>
      <trkpt lat="44.19142" lon="0.86986">
        <ele>72.24</ele>
        <time>2016-07-23T07:21:39Z</time>
      </trkpt>
      <trkpt lat="44.19156" lon="0.86989">
        <ele>71.76</ele>
        <time>2016-07-23T07:21:53Z</time>
      </trkpt>
      <trkpt lat="44.19159" lon="0.86997">
        <ele>71.76</ele>
        <time>2016-07-23T07:22:04Z</time>
      </trkpt>
      <trkpt lat="44.19158" lon="0.87009">
        <ele>71.76</ele>
        <time>2016-07-23T07:22:14Z</time>
      </trkpt>
      <trkpt lat="44.19158" lon="0.87023">
        <ele>71.76</ele>
        <time>2016-07-23T07:22:24Z</time>
      </trkpt>
      <trkpt lat="44.19159" lon="0.87036">
        <ele>71.76</ele>
        <time>2016-07-23T07:22:34Z</time>
      </trkpt>
      <trkpt lat="44.19161" lon="0.87049">
        <ele>71.27</ele>
        <time>2016-07-23T07:22:44Z</time>
      </trkpt>
      <trkpt lat="44.19163" lon="0.87063">
        <ele>71.27</ele>
        <time>2016-07-23T07:22:54Z</time>
      </trkpt>
      <trkpt lat="44.19165" lon="0.87076">
        <ele>71.27</ele>
        <time>2016-07-23T07:23:04Z</time>
      </trkpt>
      <trkpt lat="44.19166" lon="0.87088">
        <ele>71.27</ele>
        <time>2016-07-23T07:23:12Z</time>
      </trkpt>
      <trkpt lat="44.19169" lon="0.87101">
        <ele>71.27</ele>
        <time>2016-07-23T07:23:22Z</time>
      </trkpt>
      <trkpt lat="44.19173" lon="0.87114">
        <ele>71.27</ele>
        <time>2016-07-23T07:23:32Z</time>
      </trkpt>
      <trkpt lat="44.19177" lon="0.87126">
        <ele>71.27</ele>
        <time>2016-07-23T07:23:41Z</time>
      </trkpt>
      <trkpt lat="44.19178" lon="0.8714">
        <ele>71.27</ele>
        <time>2016-07-23T07:23:51Z</time>
      </trkpt>
      <trkpt lat="44.19176" lon="0.87153">
        <ele>73.2</ele>
        <time>2016-07-23T07:24:01Z</time>
      </trkpt>
      <trkpt lat="44.19175" lon="0.87166">
        <ele>73.68</ele>
        <time>2016-07-23T07:24:11Z</time>
      </trkpt>
      <trkpt lat="44.19173" lon="0.87179">
        <ele>73.68</ele>
        <time>2016-07-23T07:24:21Z</time>
      </trkpt>
      <trkpt lat="44.19172" lon="0.87192">
        <ele>74.64</ele>
        <time>2016-07-23T07:24:30Z</time>
      </trkpt>
      <trkpt lat="44.1917" lon="0.87204">
        <ele>75.12</ele>
        <time>2016-07-23T07:24:40Z</time>
      </trkpt>
      <trkpt lat="44.19168" lon="0.87218">
        <ele>75.12</ele>
        <time>2016-07-23T07:24:50Z</time>
      </trkpt>
      <trkpt lat="44.19166" lon="0.8723">
        <ele>75.6</ele>
        <time>2016-07-23T07:24:58Z</time>
      </trkpt>
      <trkpt lat="44.19165" lon="0.87243">
        <ele>75.6</ele>
        <time>2016-07-23T07:25:08Z</time>
      </trkpt>
      <trkpt lat="44.19163" lon="0.87256">
        <ele>75.6</ele>
        <time>2016-07-23T07:25:17Z</time>
      </trkpt>
      <trkpt lat="44.19161" lon="0.87271">
        <ele>75.6</ele>
        <time>2016-07-23T07:25:28Z</time>
      </trkpt>
      <trkpt lat="44.19158" lon="0.87285">
        <ele>75.6</ele>
        <time>2016-07-23T07:25:37Z</time>
      </trkpt>
      <trkpt lat="44.19155" lon="0.873">
        <ele>74.16</ele>
        <time>2016-07-23T07:25:48Z</time>
      </trkpt>
      <trkpt lat="44.19152" lon="0.87313">
        <ele>73.68</ele>
        <time>2016-07-23T07:25:56Z</time>
      </trkpt>
      <trkpt lat="44.1915" lon="0.87324">
        <ele>73.2</ele>
        <time>2016-07-23T07:26:04Z</time>
      </trkpt>
      <trkpt lat="44.19148" lon="0.8734">
        <ele>72.24</ele>
        <time>2016-07-23T07:26:16Z</time>
      </trkpt>
      <trkpt lat="44.19146" lon="0.87353">
        <ele>72.72</ele>
        <time>2016-07-23T07:26:25Z</time>
      </trkpt>
      <trkpt lat="44.19145" lon="0.87366">
        <ele>72.72</ele>
        <time>2016-07-23T07:26:33Z</time>
      </trkpt>
      <trkpt lat="44.19143" lon="0.87378">
        <ele>72.24</ele>
        <time>2016-07-23T07:26:43Z</time>
      </trkpt>
      <trkpt lat="44.19141" lon="0.87391">
        <ele>72.24</ele>
        <time>2016-07-23T07:26:54Z</time>
      </trkpt>
      <trkpt lat="44.19139" lon="0.87405">
        <ele>72.24</ele>
        <time>2016-07-23T07:27:06Z</time>
      </trkpt>
      <trkpt lat="44.19141" lon="0.87416">
        <ele>73.68</ele>
        <time>2016-07-23T07:27:54Z</time>
      </trkpt>
      <trkpt lat="44.19134" lon="0.87413">
        <ele>73.68</ele>
        <time>2016-07-23T07:28:55Z</time>
      </trkpt>
      <trkpt lat="44.19113" lon="0.87407">
        <ele>76.08</ele>
        <time>2016-07-23T07:29:29Z</time>
      </trkpt>
      <trkpt lat="44.19075" lon="0.87418">
        <ele>83.29</ele>
        <time>2016-07-23T07:30:46Z</time>
      </trkpt>
      <trkpt lat="44.19043" lon="0.8751">
        <ele>82.81</ele>
        <time>2016-07-23T07:32:05Z</time>
      </trkpt>
      <trkpt lat="44.1902" lon="0.87583">
        <ele>82.33</ele>
        <time>2016-07-23T07:33:01Z</time>
      </trkpt>
      <trkpt lat="44.19015" lon="0.87613">
        <ele>82.33</ele>
        <time>2016-07-23T07:33:24Z</time>
      </trkpt>
      <trkpt lat="44.19018" lon="0.87651">
        <ele>78.48</ele>
        <time>2016-07-23T07:34:08Z</time>
      </trkpt>
      <trkpt lat="44.18996" lon="0.87667">
        <ele>78.48</ele>
        <time>2016-07-23T07:34:38Z</time>
      </trkpt>
      <trkpt lat="44.18986" lon="0.87672">
        <ele>79.45</ele>
        <time>2016-07-23T07:34:48Z</time>
      </trkpt>
      <trkpt lat="44.18978" lon="0.87684">
        <ele>80.41</ele>
        <time>2016-07-23T07:35:00Z</time>
      </trkpt>
      <trkpt lat="44.18974" lon="0.87703">
        <ele>80.41</ele>
        <time>2016-07-23T07:35:10Z</time>
      </trkpt>
      <trkpt lat="44.18973" lon="0.87723">
        <ele>80.41</ele>
        <time>2016-07-23T07:35:24Z</time>
      </trkpt>
      <trkpt lat="44.1898" lon="0.87737">
        <ele>80.41</ele>
        <time>2016-07-23T07:35:36Z</time>
      </trkpt>
      <trkpt lat="44.18996" lon="0.87773">
        <ele>78.48</ele>
        <time>2016-07-23T07:36:26Z</time>
      </trkpt>
      <trkpt lat="44.19009" lon="0.87851">
        <ele>77.04</ele>
        <time>2016-07-23T07:37:41Z</time>
      </trkpt>
      <trkpt lat="44.19004" lon="0.87892">
        <ele>77.04</ele>
        <time>2016-07-23T07:38:14Z</time>
      </trkpt>
      <trkpt lat="44.18996" lon="0.87955">
        <ele>77.52</ele>
        <time>2016-07-23T07:39:09Z</time>
      </trkpt>
      <trkpt lat="44.18975" lon="0.88022">
        <ele>78.97</ele>
        <time>2016-07-23T07:40:10Z</time>
      </trkpt>
      <trkpt lat="44.18969" lon="0.8807">
        <ele>78.97</ele>
        <time>2016-07-23T07:40:48Z</time>
      </trkpt>
      <trkpt lat="44.18961" lon="0.88098">
        <ele>78.97</ele>
        <time>2016-07-23T07:41:09Z</time>
      </trkpt>
      <trkpt lat="44.18925" lon="0.88254">
        <ele>78</ele>
        <time>2016-07-23T07:43:14Z</time>
      </trkpt>
      <trkpt lat="44.18913" lon="0.88315">
        <ele>79.45</ele>
        <time>2016-07-23T07:44:08Z</time>
      </trkpt>
      <trkpt lat="44.1891" lon="0.8834">
        <ele>79.93</ele>
        <time>2016-07-23T07:44:29Z</time>
      </trkpt>
      <trkpt lat="44.18903" lon="0.88357">
        <ele>79.93</ele>
        <time>2016-07-23T07:44:41Z</time>
      </trkpt>
      <trkpt lat="44.18895" lon="0.88367">
        <ele>80.41</ele>
        <time>2016-07-23T07:44:52Z</time>
      </trkpt>
      <trkpt lat="44.18877" lon="0.88431">
        <ele>83.29</ele>
        <time>2016-07-23T07:46:11Z</time>
      </trkpt>
      <trkpt lat="44.18886" lon="0.88445">
        <ele>83.29</ele>
        <time>2016-07-23T07:46:54Z</time>
      </trkpt>
      <trkpt lat="44.18893" lon="0.88464">
        <ele>82.33</ele>
        <time>2016-07-23T07:47:11Z</time>
      </trkpt>
      <trkpt lat="44.189" lon="0.8848">
        <ele>81.85</ele>
        <time>2016-07-23T07:47:27Z</time>
      </trkpt>
      <trkpt lat="44.18907" lon="0.88494">
        <ele>80.89</ele>
        <time>2016-07-23T07:47:39Z</time>
      </trkpt>
      <trkpt lat="44.18919" lon="0.88516">
        <ele>79.45</ele>
        <time>2016-07-23T07:48:01Z</time>
      </trkpt>
      <trkpt lat="44.18931" lon="0.88536">
        <ele>78.48</ele>
        <time>2016-07-23T07:48:15Z</time>
      </trkpt>
      <trkpt lat="44.1894" lon="0.88551">
        <ele>78</ele>
        <time>2016-07-23T07:48:25Z</time>
      </trkpt>
      <trkpt lat="44.18949" lon="0.88565">
        <ele>77.52</ele>
        <time>2016-07-23T07:48:37Z</time>
      </trkpt>
      <trkpt lat="44.18955" lon="0.88578">
        <ele>77.52</ele>
        <time>2016-07-23T07:48:48Z</time>
      </trkpt>
      <trkpt lat="44.18964" lon="0.88586">
        <ele>77.04</ele>
        <time>2016-07-23T07:49:01Z</time>
      </trkpt>
      <trkpt lat="44.18965" lon="0.8859">
        <ele>77.04</ele>
        <time>2016-07-23T07:49:26Z</time>
      </trkpt>
      <trkpt lat="44.18964" lon="0.88602">
        <ele>76.56</ele>
        <time>2016-07-23T07:49:33Z</time>
      </trkpt>
      <trkpt lat="44.18964" lon="0.88599">
        <ele>76.56</ele>
        <time>2016-07-23T07:50:24Z</time>
      </trkpt>
      <trkpt lat="44.18969" lon="0.88587">
        <ele>76.56</ele>
        <time>2016-07-23T07:50:34Z</time>
      </trkpt>
      <trkpt lat="44.18976" lon="0.88593">
        <ele>77.04</ele>
        <time>2016-07-23T07:50:54Z</time>
      </trkpt>
      <trkpt lat="44.18984" lon="0.88599">
        <ele>77.04</ele>
        <time>2016-07-23T07:51:02Z</time>
      </trkpt>
      <trkpt lat="44.18993" lon="0.88605">
        <ele>77.04</ele>
        <time>2016-07-23T07:51:10Z</time>
      </trkpt>
      <trkpt lat="44.19" lon="0.88611">
        <ele>76.56</ele>
        <time>2016-07-23T07:51:18Z</time>
      </trkpt>
      <trkpt lat="44.19009" lon="0.88616">
        <ele>76.56</ele>
        <time>2016-07-23T07:51:26Z</time>
      </trkpt>
      <trkpt lat="44.19017" lon="0.88621">
        <ele>76.56</ele>
        <time>2016-07-23T07:51:35Z</time>
      </trkpt>
      <trkpt lat="44.19025" lon="0.88627">
        <ele>76.56</ele>
        <time>2016-07-23T07:51:44Z</time>
      </trkpt>
      <trkpt lat="44.19034" lon="0.88635">
        <ele>76.56</ele>
        <time>2016-07-23T07:51:54Z</time>
      </trkpt>
      <trkpt lat="44.19041" lon="0.88641">
        <ele>76.56</ele>
        <time>2016-07-23T07:52:02Z</time>
      </trkpt>
      <trkpt lat="44.1905" lon="0.88649">
        <ele>76.56</ele>
        <time>2016-07-23T07:52:13Z</time>
      </trkpt>
      <trkpt lat="44.19059" lon="0.88653">
        <ele>76.56</ele>
        <time>2016-07-23T07:52:24Z</time>
      </trkpt>
      <trkpt lat="44.19065" lon="0.88647">
        <ele>78</ele>
        <time>2016-07-23T07:52:52Z</time>
      </trkpt>
      <trkpt lat="44.19072" lon="0.88635">
        <ele>77.52</ele>
        <time>2016-07-23T08:04:23Z</time>
      </trkpt>
      <trkpt lat="44.19081" lon="0.88624">
        <ele>77.04</ele>
        <time>2016-07-23T08:04:36Z</time>
      </trkpt>
      <trkpt lat="44.19088" lon="0.88613">
        <ele>76.56</ele>
        <time>2016-07-23T08:04:46Z</time>
      </trkpt>
      <trkpt lat="44.19093" lon="0.886">
        <ele>76.56</ele>
        <time>2016-07-23T08:04:58Z</time>
      </trkpt>
      <trkpt lat="44.19096" lon="0.88586">
        <ele>76.56</ele>
        <time>2016-07-23T08:05:09Z</time>
      </trkpt>
      <trkpt lat="44.191" lon="0.88574">
        <ele>76.56</ele>
        <time>2016-07-23T08:05:17Z</time>
      </trkpt>
      <trkpt lat="44.19104" lon="0.8856">
        <ele>76.56</ele>
        <time>2016-07-23T08:05:28Z</time>
      </trkpt>
      <trkpt lat="44.19107" lon="0.88545">
        <ele>76.56</ele>
        <time>2016-07-23T08:05:40Z</time>
      </trkpt>
      <trkpt lat="44.19113" lon="0.88533">
        <ele>76.56</ele>
        <time>2016-07-23T08:05:50Z</time>
      </trkpt>
      <trkpt lat="44.1912" lon="0.88522">
        <ele>76.56</ele>
        <time>2016-07-23T08:06:02Z</time>
      </trkpt>
      <trkpt lat="44.19124" lon="0.88511">
        <ele>76.56</ele>
        <time>2016-07-23T08:06:11Z</time>
      </trkpt>
      <trkpt lat="44.19131" lon="0.885">
        <ele>76.56</ele>
        <time>2016-07-23T08:06:22Z</time>
      </trkpt>
      <trkpt lat="44.19137" lon="0.88487">
        <ele>76.56</ele>
        <time>2016-07-23T08:06:33Z</time>
      </trkpt>
      <trkpt lat="44.19139" lon="0.88474">
        <ele>76.56</ele>
        <time>2016-07-23T08:06:44Z</time>
      </trkpt>
      <trkpt lat="44.19141" lon="0.88459">
        <ele>76.56</ele>
        <time>2016-07-23T08:06:54Z</time>
      </trkpt>
      <trkpt lat="44.19139" lon="0.88446">
        <ele>77.04</ele>
        <time>2016-07-23T08:07:03Z</time>
      </trkpt>
      <trkpt lat="44.1914" lon="0.88431">
        <ele>77.04</ele>
        <time>2016-07-23T08:07:15Z</time>
      </trkpt>
      <trkpt lat="44.19143" lon="0.88415">
        <ele>77.04</ele>
        <time>2016-07-23T08:07:24Z</time>
      </trkpt>
      <trkpt lat="44.19145" lon="0.88401">
        <ele>77.04</ele>
        <time>2016-07-23T08:07:33Z</time>
      </trkpt>
      <trkpt lat="44.19145" lon="0.88383">
        <ele>77.04</ele>
        <time>2016-07-23T08:07:46Z</time>
      </trkpt>
      <trkpt lat="44.19149" lon="0.8837">
        <ele>77.04</ele>
        <time>2016-07-23T08:07:56Z</time>
      </trkpt>
      <trkpt lat="44.19153" lon="0.88357">
        <ele>77.04</ele>
        <time>2016-07-23T08:08:06Z</time>
      </trkpt>
      <trkpt lat="44.19155" lon="0.88343">
        <ele>77.04</ele>
        <time>2016-07-23T08:08:15Z</time>
      </trkpt>
      <trkpt lat="44.19158" lon="0.88328">
        <ele>77.04</ele>
        <time>2016-07-23T08:08:26Z</time>
      </trkpt>
      <trkpt lat="44.19159" lon="0.88313">
        <ele>76.56</ele>
        <time>2016-07-23T08:08:37Z</time>
      </trkpt>
      <trkpt lat="44.19158" lon="0.88294">
        <ele>76.56</ele>
        <time>2016-07-23T08:08:49Z</time>
      </trkpt>
      <trkpt lat="44.19153" lon="0.88268">
        <ele>76.56</ele>
        <time>2016-07-23T08:09:08Z</time>
      </trkpt>
      <trkpt lat="44.1915" lon="0.88255">
        <ele>76.56</ele>
        <time>2016-07-23T08:09:18Z</time>
      </trkpt>
      <trkpt lat="44.19147" lon="0.88241">
        <ele>76.56</ele>
        <time>2016-07-23T08:09:28Z</time>
      </trkpt>
      <trkpt lat="44.19146" lon="0.88225">
        <ele>76.08</ele>
        <time>2016-07-23T08:09:40Z</time>
      </trkpt>
      <trkpt lat="44.19145" lon="0.88205">
        <ele>76.08</ele>
        <time>2016-07-23T08:09:54Z</time>
      </trkpt>
      <trkpt lat="44.19146" lon="0.88189">
        <ele>76.08</ele>
        <time>2016-07-23T08:10:04Z</time>
      </trkpt>
      <trkpt lat="44.1915" lon="0.88173">
        <ele>76.08</ele>
        <time>2016-07-23T08:10:15Z</time>
      </trkpt>
      <trkpt lat="44.19155" lon="0.88161">
        <ele>76.08</ele>
        <time>2016-07-23T08:10:25Z</time>
      </trkpt>
      <trkpt lat="44.1916" lon="0.88149">
        <ele>76.08</ele>
        <time>2016-07-23T08:10:35Z</time>
      </trkpt>
      <trkpt lat="44.19165" lon="0.88135">
        <ele>76.08</ele>
        <time>2016-07-23T08:10:45Z</time>
      </trkpt>
      <trkpt lat="44.19169" lon="0.8812">
        <ele>76.08</ele>
        <time>2016-07-23T08:10:55Z</time>
      </trkpt>
      <trkpt lat="44.1917" lon="0.88108">
        <ele>76.08</ele>
        <time>2016-07-23T08:11:04Z</time>
      </trkpt>
      <trkpt lat="44.19171" lon="0.88095">
        <ele>76.08</ele>
        <time>2016-07-23T08:11:14Z</time>
      </trkpt>
      <trkpt lat="44.19171" lon="0.8808">
        <ele>76.08</ele>
        <time>2016-07-23T08:11:23Z</time>
      </trkpt>
      <trkpt lat="44.19176" lon="0.88066">
        <ele>76.08</ele>
        <time>2016-07-23T08:11:32Z</time>
      </trkpt>
      <trkpt lat="44.19181" lon="0.88055">
        <ele>76.08</ele>
        <time>2016-07-23T08:11:42Z</time>
      </trkpt>
      <trkpt lat="44.19186" lon="0.88041">
        <ele>76.08</ele>
        <time>2016-07-23T08:11:53Z</time>
      </trkpt>
      <trkpt lat="44.1919" lon="0.88029">
        <ele>76.08</ele>
        <time>2016-07-23T08:12:03Z</time>
      </trkpt>
      <trkpt lat="44.19192" lon="0.88016">
        <ele>76.08</ele>
        <time>2016-07-23T08:12:12Z</time>
      </trkpt>
      <trkpt lat="44.19195" lon="0.88003">
        <ele>76.08</ele>
        <time>2016-07-23T08:12:22Z</time>
      </trkpt>
      <trkpt lat="44.19192" lon="0.8799">
        <ele>75.6</ele>
        <time>2016-07-23T08:12:47Z</time>
      </trkpt>
      <trkpt lat="44.19182" lon="0.87986">
        <ele>75.6</ele>
        <time>2016-07-23T08:12:58Z</time>
      </trkpt>
      <trkpt lat="44.19171" lon="0.87987">
        <ele>75.6</ele>
        <time>2016-07-23T08:13:09Z</time>
      </trkpt>
      <trkpt lat="44.19161" lon="0.87984">
        <ele>75.12</ele>
        <time>2016-07-23T08:13:19Z</time>
      </trkpt>
      <trkpt lat="44.19152" lon="0.87982">
        <ele>75.12</ele>
        <time>2016-07-23T08:13:28Z</time>
      </trkpt>
      <trkpt lat="44.19143" lon="0.87976">
        <ele>75.12</ele>
        <time>2016-07-23T08:13:40Z</time>
      </trkpt>
      <trkpt lat="44.19135" lon="0.87971">
        <ele>75.12</ele>
        <time>2016-07-23T08:13:56Z</time>
      </trkpt>
      <trkpt lat="44.19134" lon="0.8796">
        <ele>75.12</ele>
        <time>2016-07-23T08:14:07Z</time>
      </trkpt>
      <trkpt lat="44.19136" lon="0.87947">
        <ele>75.12</ele>
        <time>2016-07-23T08:14:16Z</time>
      </trkpt>
      <trkpt lat="44.19139" lon="0.87934">
        <ele>75.12</ele>
        <time>2016-07-23T08:14:26Z</time>
      </trkpt>
      <trkpt lat="44.19142" lon="0.87921">
        <ele>75.12</ele>
        <time>2016-07-23T08:14:35Z</time>
      </trkpt>
      <trkpt lat="44.19145" lon="0.87908">
        <ele>75.12</ele>
        <time>2016-07-23T08:14:44Z</time>
      </trkpt>
      <trkpt lat="44.19149" lon="0.87895">
        <ele>75.12</ele>
        <time>2016-07-23T08:14:53Z</time>
      </trkpt>
      <trkpt lat="44.19152" lon="0.87881">
        <ele>75.12</ele>
        <time>2016-07-23T08:15:03Z</time>
      </trkpt>
      <trkpt lat="44.19153" lon="0.87869">
        <ele>75.12</ele>
        <time>2016-07-23T08:15:12Z</time>
      </trkpt>
      <trkpt lat="44.19155" lon="0.87855">
        <ele>75.12</ele>
        <time>2016-07-23T08:15:22Z</time>
      </trkpt>
      <trkpt lat="44.19158" lon="0.87844">
        <ele>75.12</ele>
        <time>2016-07-23T08:15:33Z</time>
      </trkpt>
      <trkpt lat="44.19161" lon="0.8783">
        <ele>75.12</ele>
        <time>2016-07-23T08:15:43Z</time>
      </trkpt>
      <trkpt lat="44.19163" lon="0.87817">
        <ele>75.12</ele>
        <time>2016-07-23T08:15:53Z</time>
      </trkpt>
      <trkpt lat="44.19166" lon="0.87805">
        <ele>75.12</ele>
        <time>2016-07-23T08:16:01Z</time>
      </trkpt>
      <trkpt lat="44.19168" lon="0.87792">
        <ele>74.64</ele>
        <time>2016-07-23T08:16:10Z</time>
      </trkpt>
      <trkpt lat="44.19171" lon="0.87778">
        <ele>74.64</ele>
        <time>2016-07-23T08:16:20Z</time>
      </trkpt>
      <trkpt lat="44.19174" lon="0.87764">
        <ele>74.64</ele>
        <time>2016-07-23T08:16:30Z</time>
      </trkpt>
      <trkpt lat="44.19176" lon="0.87751">
        <ele>74.64</ele>
        <time>2016-07-23T08:16:39Z</time>
      </trkpt>
      <trkpt lat="44.19177" lon="0.87737">
        <ele>74.64</ele>
        <time>2016-07-23T08:16:50Z</time>
      </trkpt>
      <trkpt lat="44.19179" lon="0.87724">
        <ele>74.64</ele>
        <time>2016-07-23T08:17:00Z</time>
      </trkpt>
      <trkpt lat="44.19183" lon="0.87711">
        <ele>74.16</ele>
        <time>2016-07-23T08:17:09Z</time>
      </trkpt>
      <trkpt lat="44.19185" lon="0.87698">
        <ele>74.16</ele>
        <time>2016-07-23T08:17:19Z</time>
      </trkpt>
      <trkpt lat="44.19188" lon="0.87685">
        <ele>74.16</ele>
        <time>2016-07-23T08:17:29Z</time>
      </trkpt>
      <trkpt lat="44.19192" lon="0.87673">
        <ele>74.16</ele>
        <time>2016-07-23T08:17:39Z</time>
      </trkpt>
      <trkpt lat="44.19194" lon="0.87662">
        <ele>74.16</ele>
        <time>2016-07-23T08:17:49Z</time>
      </trkpt>
      <trkpt lat="44.19197" lon="0.8765">
        <ele>74.16</ele>
        <time>2016-07-23T08:17:58Z</time>
      </trkpt>
      <trkpt lat="44.19199" lon="0.87637">
        <ele>74.16</ele>
        <time>2016-07-23T08:18:08Z</time>
      </trkpt>
      <trkpt lat="44.19202" lon="0.87624">
        <ele>74.16</ele>
        <time>2016-07-23T08:18:18Z</time>
      </trkpt>
      <trkpt lat="44.19204" lon="0.87611">
        <ele>74.16</ele>
        <time>2016-07-23T08:18:28Z</time>
      </trkpt>
      <trkpt lat="44.19207" lon="0.87598">
        <ele>74.16</ele>
        <time>2016-07-23T08:18:37Z</time>
      </trkpt>
      <trkpt lat="44.1921" lon="0.87585">
        <ele>74.16</ele>
        <time>2016-07-23T08:18:47Z</time>
      </trkpt>
      <trkpt lat="44.19213" lon="0.87572">
        <ele>74.16</ele>
        <time>2016-07-23T08:18:57Z</time>
      </trkpt>
      <trkpt lat="44.19216" lon="0.87558">
        <ele>74.16</ele>
        <time>2016-07-23T08:19:07Z</time>
      </trkpt>
      <trkpt lat="44.19218" lon="0.87545">
        <ele>73.68</ele>
        <time>2016-07-23T08:19:16Z</time>
      </trkpt>
      <trkpt lat="44.19223" lon="0.87533">
        <ele>74.16</ele>
        <time>2016-07-23T08:19:26Z</time>
      </trkpt>
      <trkpt lat="44.19225" lon="0.87519">
        <ele>74.16</ele>
        <time>2016-07-23T08:19:38Z</time>
      </trkpt>
      <trkpt lat="44.19228" lon="0.87505">
        <ele>74.16</ele>
        <time>2016-07-23T08:19:48Z</time>
      </trkpt>
      <trkpt lat="44.19231" lon="0.87491">
        <ele>74.16</ele>
        <time>2016-07-23T08:19:59Z</time>
      </trkpt>
      <trkpt lat="44.19233" lon="0.87477">
        <ele>73.68</ele>
        <time>2016-07-23T08:20:11Z</time>
      </trkpt>
      <trkpt lat="44.19236" lon="0.87464">
        <ele>74.16</ele>
        <time>2016-07-23T08:20:21Z</time>
      </trkpt>
      <trkpt lat="44.19239" lon="0.87449">
        <ele>75.12</ele>
        <time>2016-07-23T08:20:33Z</time>
      </trkpt>
      <trkpt lat="44.19241" lon="0.87436">
        <ele>75.12</ele>
        <time>2016-07-23T08:20:45Z</time>
      </trkpt>
      <trkpt lat="44.19251" lon="0.87435">
        <ele>75.12</ele>
        <time>2016-07-23T08:21:37Z</time>
      </trkpt>
      <trkpt lat="44.19263" lon="0.87439">
        <ele>75.6</ele>
        <time>2016-07-23T08:22:06Z</time>
      </trkpt>
      <trkpt lat="44.19275" lon="0.87441">
        <ele>75.6</ele>
        <time>2016-07-23T08:22:18Z</time>
      </trkpt>
      <trkpt lat="44.1929" lon="0.87442">
        <ele>75.6</ele>
        <time>2016-07-23T08:22:41Z</time>
      </trkpt>
      <trkpt lat="44.19303" lon="0.87445">
        <ele>75.6</ele>
        <time>2016-07-23T08:22:52Z</time>
      </trkpt>
      <trkpt lat="44.19314" lon="0.87446">
        <ele>75.6</ele>
        <time>2016-07-23T08:23:03Z</time>
      </trkpt>
      <trkpt lat="44.19325" lon="0.87449">
        <ele>75.6</ele>
        <time>2016-07-23T08:23:14Z</time>
      </trkpt>
      <trkpt lat="44.19337" lon="0.87451">
        <ele>75.6</ele>
        <time>2016-07-23T08:23:24Z</time>
      </trkpt>
      <trkpt lat="44.19349" lon="0.87455">
        <ele>76.08</ele>
        <time>2016-07-23T08:23:37Z</time>
      </trkpt>
      <trkpt lat="44.19361" lon="0.8745">
        <ele>76.08</ele>
        <time>2016-07-23T08:23:48Z</time>
      </trkpt>
      <trkpt lat="44.19368" lon="0.87434">
        <ele>76.08</ele>
        <time>2016-07-23T08:24:00Z</time>
      </trkpt>
      <trkpt lat="44.19371" lon="0.87421">
        <ele>76.08</ele>
        <time>2016-07-23T08:24:08Z</time>
      </trkpt>
      <trkpt lat="44.19375" lon="0.87408">
        <ele>76.08</ele>
        <time>2016-07-23T08:24:25Z</time>
      </trkpt>
      <trkpt lat="44.19383" lon="0.87404">
        <ele>76.08</ele>
        <time>2016-07-23T08:24:37Z</time>
      </trkpt>
      <trkpt lat="44.19393" lon="0.87406">
        <ele>76.08</ele>
        <time>2016-07-23T08:24:47Z</time>
      </trkpt>
      <trkpt lat="44.19403" lon="0.87406">
        <ele>76.08</ele>
        <time>2016-07-23T08:24:57Z</time>
      </trkpt>
      <trkpt lat="44.19411" lon="0.87409">
        <ele>76.56</ele>
        <time>2016-07-23T08:25:07Z</time>
      </trkpt>
      <trkpt lat="44.19421" lon="0.87409">
        <ele>76.08</ele>
        <time>2016-07-23T08:25:18Z</time>
      </trkpt>
      <trkpt lat="44.19431" lon="0.87412">
        <ele>76.56</ele>
        <time>2016-07-23T08:25:30Z</time>
      </trkpt>
      <trkpt lat="44.19442" lon="0.87412">
        <ele>76.56</ele>
        <time>2016-07-23T08:25:41Z</time>
      </trkpt>
      <trkpt lat="44.19453" lon="0.87412">
        <ele>76.56</ele>
        <time>2016-07-23T08:25:52Z</time>
      </trkpt>
      <trkpt lat="44.19462" lon="0.87413">
        <ele>77.04</ele>
        <time>2016-07-23T08:26:02Z</time>
      </trkpt>
      <trkpt lat="44.19472" lon="0.87413">
        <ele>77.04</ele>
        <time>2016-07-23T08:26:12Z</time>
      </trkpt>
      <trkpt lat="44.19482" lon="0.87415">
        <ele>77.52</ele>
        <time>2016-07-23T08:26:22Z</time>
      </trkpt>
      <trkpt lat="44.19492" lon="0.87415">
        <ele>77.52</ele>
        <time>2016-07-23T08:26:32Z</time>
      </trkpt>
      <trkpt lat="44.19502" lon="0.87415">
        <ele>78</ele>
        <time>2016-07-23T08:26:43Z</time>
      </trkpt>
      <trkpt lat="44.19512" lon="0.87416">
        <ele>78.48</ele>
        <time>2016-07-23T08:26:55Z</time>
      </trkpt>
      <trkpt lat="44.19523" lon="0.87417">
        <ele>79.45</ele>
        <time>2016-07-23T08:27:06Z</time>
      </trkpt>
      <trkpt lat="44.19533" lon="0.87418">
        <ele>79.45</ele>
        <time>2016-07-23T08:27:17Z</time>
      </trkpt>
      <trkpt lat="44.19543" lon="0.87419">
        <ele>79.93</ele>
        <time>2016-07-23T08:27:28Z</time>
      </trkpt>
      <trkpt lat="44.19554" lon="0.8742">
        <ele>79.93</ele>
        <time>2016-07-23T08:27:39Z</time>
      </trkpt>
      <trkpt lat="44.19565" lon="0.87421">
        <ele>80.89</ele>
        <time>2016-07-23T08:27:51Z</time>
      </trkpt>
      <trkpt lat="44.19576" lon="0.87422">
        <ele>81.37</ele>
        <time>2016-07-23T08:28:02Z</time>
      </trkpt>
      <trkpt lat="44.19586" lon="0.87422">
        <ele>81.85</ele>
        <time>2016-07-23T08:28:13Z</time>
      </trkpt>
      <trkpt lat="44.19596" lon="0.87423">
        <ele>82.81</ele>
        <time>2016-07-23T08:28:24Z</time>
      </trkpt>
      <trkpt lat="44.19607" lon="0.87423">
        <ele>83.29</ele>
        <time>2016-07-23T08:28:35Z</time>
      </trkpt>
      <trkpt lat="44.19617" lon="0.87425">
        <ele>83.29</ele>
        <time>2016-07-23T08:28:46Z</time>
      </trkpt>
      <trkpt lat="44.19628" lon="0.87426">
        <ele>83.77</ele>
        <time>2016-07-23T08:28:59Z</time>
      </trkpt>
      <trkpt lat="44.19638" lon="0.87427">
        <ele>85.21</ele>
        <time>2016-07-23T08:29:16Z</time>
      </trkpt>
      <trkpt lat="44.19642" lon="0.87432">
        <ele>85.69</ele>
        <time>2016-07-23T08:29:54Z</time>
      </trkpt>
      <trkpt lat="44.19647" lon="0.87436">
        <ele>85.69</ele>
        <time>2016-07-23T08:30:12Z</time>
      </trkpt>
      <trkpt lat="44.19659" lon="0.87438">
        <ele>85.69</ele>
        <time>2016-07-23T08:30:31Z</time>
      </trkpt>
      <trkpt lat="44.19669" lon="0.87439">
        <ele>86.18</ele>
        <time>2016-07-23T08:30:44Z</time>
      </trkpt>
      <trkpt lat="44.19679" lon="0.87439">
        <ele>86.18</ele>
        <time>2016-07-23T08:30:54Z</time>
      </trkpt>
      <trkpt lat="44.19689" lon="0.87438">
        <ele>86.18</ele>
        <time>2016-07-23T08:31:04Z</time>
      </trkpt>
      <trkpt lat="44.197" lon="0.87437">
        <ele>86.66</ele>
        <time>2016-07-23T08:31:17Z</time>
      </trkpt>
      <trkpt lat="44.19711" lon="0.87438">
        <ele>87.14</ele>
        <time>2016-07-23T08:31:28Z</time>
      </trkpt>
      <trkpt lat="44.19722" lon="0.87439">
        <ele>87.14</ele>
        <time>2016-07-23T08:31:40Z</time>
      </trkpt>
      <trkpt lat="44.19732" lon="0.87435">
        <ele>88.1</ele>
        <time>2016-07-23T08:31:52Z</time>
      </trkpt>
      <trkpt lat="44.19741" lon="0.87429">
        <ele>88.58</ele>
        <time>2016-07-23T08:32:04Z</time>
      </trkpt>
      <trkpt lat="44.19751" lon="0.87424">
        <ele>89.06</ele>
        <time>2016-07-23T08:32:26Z</time>
      </trkpt>
      <trkpt lat="44.19756" lon="0.87426">
        <ele>89.54</ele>
        <time>2016-07-23T08:33:05Z</time>
      </trkpt>
      <trkpt lat="44.19767" lon="0.87426">
        <ele>90.02</ele>
        <time>2016-07-23T08:33:18Z</time>
      </trkpt>
      <trkpt lat="44.19778" lon="0.87427">
        <ele>90.98</ele>
        <time>2016-07-23T08:33:31Z</time>
      </trkpt>
      <trkpt lat="44.19789" lon="0.87427">
        <ele>91.94</ele>
        <time>2016-07-23T08:33:44Z</time>
      </trkpt>
      <trkpt lat="44.19799" lon="0.87428">
        <ele>91.94</ele>
        <time>2016-07-23T08:33:56Z</time>
      </trkpt>
      <trkpt lat="44.1981" lon="0.87428">
        <ele>93.39</ele>
        <time>2016-07-23T08:34:11Z</time>
      </trkpt>
      <trkpt lat="44.19822" lon="0.87427">
        <ele>94.83</ele>
        <time>2016-07-23T08:34:27Z</time>
      </trkpt>
      <trkpt lat="44.19831" lon="0.87428">
        <ele>95.31</ele>
        <time>2016-07-23T08:34:43Z</time>
      </trkpt>
      <trkpt lat="44.19838" lon="0.87441">
        <ele>97.71</ele>
        <time>2016-07-23T08:35:00Z</time>
      </trkpt>
      <trkpt lat="44.19847" lon="0.87452">
        <ele>99.63</ele>
        <time>2016-07-23T08:35:22Z</time>
      </trkpt>
      <trkpt lat="44.19858" lon="0.87452">
        <ele>102.04</ele>
        <time>2016-07-23T08:35:42Z</time>
      </trkpt>
      <trkpt lat="44.19871" lon="0.87454">
        <ele>103.96</ele>
        <time>2016-07-23T08:36:16Z</time>
      </trkpt>
      <trkpt lat="44.19883" lon="0.87453">
        <ele>105.88</ele>
        <time>2016-07-23T08:36:34Z</time>
      </trkpt>
      <trkpt lat="44.19893" lon="0.87453">
        <ele>107.81</ele>
        <time>2016-07-23T08:36:51Z</time>
      </trkpt>
      <trkpt lat="44.19904" lon="0.87454">
        <ele>109.25</ele>
        <time>2016-07-23T08:37:08Z</time>
      </trkpt>
      <trkpt lat="44.19916" lon="0.87454">
        <ele>111.17</ele>
        <time>2016-07-23T08:37:26Z</time>
      </trkpt>
      <trkpt lat="44.19927" lon="0.87456">
        <ele>112.61</ele>
        <time>2016-07-23T08:37:43Z</time>
      </trkpt>
      <trkpt lat="44.19982" lon="0.87455">
        <ele>122.71</ele>
        <time>2016-07-23T08:39:32Z</time>
      </trkpt>
      <trkpt lat="44.20016" lon="0.87454">
        <ele>129.43</ele>
        <time>2016-07-23T08:40:38Z</time>
      </trkpt>
      <trkpt lat="44.2005" lon="0.87452">
        <ele>136.64</ele>
        <time>2016-07-23T08:41:45Z</time>
      </trkpt>
      <trkpt lat="44.20084" lon="0.87447">
        <ele>142.89</ele>
        <time>2016-07-23T08:42:52Z</time>
      </trkpt>
      <trkpt lat="44.2015" lon="0.87384">
        <ele>158.27</ele>
        <time>2016-07-23T08:45:59Z</time>
      </trkpt>
      <trkpt lat="44.20164" lon="0.87367">
        <ele>158.27</ele>
        <time>2016-07-23T08:46:23Z</time>
      </trkpt>
      <trkpt lat="44.20173" lon="0.8737">
        <ele>160.68</ele>
        <time>2016-07-23T08:46:43Z</time>
      </trkpt>
      <trkpt lat="44.2018" lon="0.87376">
        <ele>162.6</ele>
        <time>2016-07-23T08:47:01Z</time>
      </trkpt>
      <trkpt lat="44.20189" lon="0.87382">
        <ele>164.52</ele>
        <time>2016-07-23T08:47:17Z</time>
      </trkpt>
      <trkpt lat="44.20198" lon="0.87389">
        <ele>165.48</ele>
        <time>2016-07-23T08:47:33Z</time>
      </trkpt>
      <trkpt lat="44.20207" lon="0.87396">
        <ele>166.45</ele>
        <time>2016-07-23T08:47:48Z</time>
      </trkpt>
      <trkpt lat="44.20218" lon="0.87407">
        <ele>166.93</ele>
        <time>2016-07-23T08:48:07Z</time>
      </trkpt>
      <trkpt lat="44.20232" lon="0.87401">
        <ele>167.41</ele>
        <time>2016-07-23T08:48:39Z</time>
      </trkpt>
      <trkpt lat="44.20241" lon="0.87397">
        <ele>165.48</ele>
        <time>2016-07-23T08:48:51Z</time>
      </trkpt>
      <trkpt lat="44.20248" lon="0.87395">
        <ele>164.04</ele>
        <time>2016-07-23T08:48:59Z</time>
      </trkpt>
      <trkpt lat="44.20256" lon="0.87392">
        <ele>163.08</ele>
        <time>2016-07-23T08:49:09Z</time>
      </trkpt>
      <trkpt lat="44.20265" lon="0.87388">
        <ele>162.12</ele>
        <time>2016-07-23T08:49:19Z</time>
      </trkpt>
      <trkpt lat="44.20272" lon="0.87382">
        <ele>161.64</ele>
        <time>2016-07-23T08:49:28Z</time>
      </trkpt>
      <trkpt lat="44.20279" lon="0.87375">
        <ele>161.64</ele>
        <time>2016-07-23T08:49:36Z</time>
      </trkpt>
      <trkpt lat="44.20286" lon="0.87367">
        <ele>161.64</ele>
        <time>2016-07-23T08:49:45Z</time>
      </trkpt>
      <trkpt lat="44.20294" lon="0.8736">
        <ele>161.16</ele>
        <time>2016-07-23T08:49:55Z</time>
      </trkpt>
      <trkpt lat="44.20302" lon="0.87353">
        <ele>161.16</ele>
        <time>2016-07-23T08:50:03Z</time>
      </trkpt>
      <trkpt lat="44.2031" lon="0.87346">
        <ele>161.16</ele>
        <time>2016-07-23T08:50:13Z</time>
      </trkpt>
      <trkpt lat="44.20318" lon="0.87339">
        <ele>161.16</ele>
        <time>2016-07-23T08:50:22Z</time>
      </trkpt>
      <trkpt lat="44.20325" lon="0.8733">
        <ele>161.16</ele>
        <time>2016-07-23T08:50:32Z</time>
      </trkpt>
      <trkpt lat="44.20333" lon="0.87321">
        <ele>161.16</ele>
        <time>2016-07-23T08:50:43Z</time>
      </trkpt>
      <trkpt lat="44.20341" lon="0.87311">
        <ele>162.12</ele>
        <time>2016-07-23T08:50:54Z</time>
      </trkpt>
      <trkpt lat="44.20347" lon="0.87302">
        <ele>162.6</ele>
        <time>2016-07-23T08:51:05Z</time>
      </trkpt>
      <trkpt lat="44.20354" lon="0.87292">
        <ele>163.08</ele>
        <time>2016-07-23T08:51:16Z</time>
      </trkpt>
      <trkpt lat="44.20362" lon="0.87282">
        <ele>163.56</ele>
        <time>2016-07-23T08:51:28Z</time>
      </trkpt>
      <trkpt lat="44.20369" lon="0.87273">
        <ele>164.04</ele>
        <time>2016-07-23T08:51:38Z</time>
      </trkpt>
      <trkpt lat="44.20375" lon="0.87263">
        <ele>164.52</ele>
        <time>2016-07-23T08:51:49Z</time>
      </trkpt>
      <trkpt lat="44.20381" lon="0.87252">
        <ele>165.48</ele>
        <time>2016-07-23T08:52:01Z</time>
      </trkpt>
      <trkpt lat="44.20387" lon="0.87241">
        <ele>165.96</ele>
        <time>2016-07-23T08:52:11Z</time>
      </trkpt>
      <trkpt lat="44.20393" lon="0.87231">
        <ele>165.96</ele>
        <time>2016-07-23T08:52:21Z</time>
      </trkpt>
      <trkpt lat="44.204" lon="0.87221">
        <ele>166.45</ele>
        <time>2016-07-23T08:52:32Z</time>
      </trkpt>
      <trkpt lat="44.20406" lon="0.87213">
        <ele>166.93</ele>
        <time>2016-07-23T08:52:41Z</time>
      </trkpt>
      <trkpt lat="44.20412" lon="0.87205">
        <ele>166.93</ele>
        <time>2016-07-23T08:52:50Z</time>
      </trkpt>
      <trkpt lat="44.2042" lon="0.87197">
        <ele>166.93</ele>
        <time>2016-07-23T08:53:01Z</time>
      </trkpt>
      <trkpt lat="44.20427" lon="0.87188">
        <ele>167.41</ele>
        <time>2016-07-23T08:53:12Z</time>
      </trkpt>
      <trkpt lat="44.20435" lon="0.87178">
        <ele>167.41</ele>
        <time>2016-07-23T08:53:22Z</time>
      </trkpt>
      <trkpt lat="44.20441" lon="0.87168">
        <ele>167.89</ele>
        <time>2016-07-23T08:53:31Z</time>
      </trkpt>
      <trkpt lat="44.20448" lon="0.87159">
        <ele>168.37</ele>
        <time>2016-07-23T08:53:42Z</time>
      </trkpt>
      <trkpt lat="44.20456" lon="0.87149">
        <ele>168.37</ele>
        <time>2016-07-23T08:53:53Z</time>
      </trkpt>
      <trkpt lat="44.20463" lon="0.87139">
        <ele>168.85</ele>
        <time>2016-07-23T08:54:05Z</time>
      </trkpt>
      <trkpt lat="44.2047" lon="0.87127">
        <ele>168.85</ele>
        <time>2016-07-23T08:54:17Z</time>
      </trkpt>
      <trkpt lat="44.2048" lon="0.87115">
        <ele>167.41</ele>
        <time>2016-07-23T08:54:31Z</time>
      </trkpt>
      <trkpt lat="44.20488" lon="0.87104">
        <ele>166.93</ele>
        <time>2016-07-23T08:54:39Z</time>
      </trkpt>
      <trkpt lat="44.20494" lon="0.87094">
        <ele>166.45</ele>
        <time>2016-07-23T08:54:48Z</time>
      </trkpt>
      <trkpt lat="44.20499" lon="0.87084">
        <ele>166.45</ele>
        <time>2016-07-23T08:54:57Z</time>
      </trkpt>
      <trkpt lat="44.20505" lon="0.87072">
        <ele>166.45</ele>
        <time>2016-07-23T08:55:07Z</time>
      </trkpt>
      <trkpt lat="44.2051" lon="0.87061">
        <ele>166.45</ele>
        <time>2016-07-23T08:55:17Z</time>
      </trkpt>
      <trkpt lat="44.20515" lon="0.8705">
        <ele>166.45</ele>
        <time>2016-07-23T08:55:27Z</time>
      </trkpt>
      <trkpt lat="44.20522" lon="0.8704">
        <ele>166.45</ele>
        <time>2016-07-23T08:55:36Z</time>
      </trkpt>
      <trkpt lat="44.20529" lon="0.87032">
        <ele>165.96</ele>
        <time>2016-07-23T08:55:47Z</time>
      </trkpt>
      <trkpt lat="44.20538" lon="0.87025">
        <ele>165.96</ele>
        <time>2016-07-23T08:55:57Z</time>
      </trkpt>
      <trkpt lat="44.20548" lon="0.87018">
        <ele>165.96</ele>
        <time>2016-07-23T08:56:08Z</time>
      </trkpt>
      <trkpt lat="44.20557" lon="0.87012">
        <ele>165.96</ele>
        <time>2016-07-23T08:56:18Z</time>
      </trkpt>
      <trkpt lat="44.20556" lon="0.86999">
        <ele>165.48</ele>
        <time>2016-07-23T08:56:36Z</time>
      </trkpt>
      <trkpt lat="44.20552" lon="0.86986">
        <ele>167.41</ele>
        <time>2016-07-23T08:56:48Z</time>
      </trkpt>
      <trkpt lat="44.20548" lon="0.86973">
        <ele>168.37</ele>
        <time>2016-07-23T08:57:00Z</time>
      </trkpt>
      <trkpt lat="44.20543" lon="0.8696">
        <ele>169.33</ele>
        <time>2016-07-23T08:57:11Z</time>
      </trkpt>
      <trkpt lat="44.20538" lon="0.86949">
        <ele>169.81</ele>
        <time>2016-07-23T08:57:21Z</time>
      </trkpt>
      <trkpt lat="44.20535" lon="0.86938">
        <ele>170.29</ele>
        <time>2016-07-23T08:57:29Z</time>
      </trkpt>
      <trkpt lat="44.20533" lon="0.86924">
        <ele>170.29</ele>
        <time>2016-07-23T08:57:39Z</time>
      </trkpt>
      <trkpt lat="44.20532" lon="0.86912">
        <ele>170.77</ele>
        <time>2016-07-23T08:57:47Z</time>
      </trkpt>
      <trkpt lat="44.2053" lon="0.86901">
        <ele>170.77</ele>
        <time>2016-07-23T08:57:56Z</time>
      </trkpt>
      <trkpt lat="44.20528" lon="0.86887">
        <ele>168.85</ele>
        <time>2016-07-23T08:58:13Z</time>
      </trkpt>
      <trkpt lat="44.20525" lon="0.86874">
        <ele>168.85</ele>
        <time>2016-07-23T08:58:26Z</time>
      </trkpt>
      <trkpt lat="44.20524" lon="0.86862">
        <ele>168.37</ele>
        <time>2016-07-23T08:58:35Z</time>
      </trkpt>
      <trkpt lat="44.20522" lon="0.86847">
        <ele>168.37</ele>
        <time>2016-07-23T08:58:46Z</time>
      </trkpt>
      <trkpt lat="44.2052" lon="0.86833">
        <ele>166.93</ele>
        <time>2016-07-23T08:58:55Z</time>
      </trkpt>
      <trkpt lat="44.20517" lon="0.86821">
        <ele>166.93</ele>
        <time>2016-07-23T08:59:03Z</time>
      </trkpt>
      <trkpt lat="44.20516" lon="0.86809">
        <ele>166.45</ele>
        <time>2016-07-23T08:59:11Z</time>
      </trkpt>
      <trkpt lat="44.20513" lon="0.86795">
        <ele>165</ele>
        <time>2016-07-23T08:59:20Z</time>
      </trkpt>
      <trkpt lat="44.20512" lon="0.86782">
        <ele>164.04</ele>
        <time>2016-07-23T08:59:29Z</time>
      </trkpt>
      <trkpt lat="44.20511" lon="0.8677">
        <ele>163.08</ele>
        <time>2016-07-23T08:59:38Z</time>
      </trkpt>
      <trkpt lat="44.20509" lon="0.86757">
        <ele>162.12</ele>
        <time>2016-07-23T08:59:47Z</time>
      </trkpt>
      <trkpt lat="44.20509" lon="0.86742">
        <ele>161.16</ele>
        <time>2016-07-23T08:59:56Z</time>
      </trkpt>
      <trkpt lat="44.2051" lon="0.86729">
        <ele>160.68</ele>
        <time>2016-07-23T09:00:05Z</time>
      </trkpt>
      <trkpt lat="44.20512" lon="0.86717">
        <ele>160.2</ele>
        <time>2016-07-23T09:00:14Z</time>
      </trkpt>
      <trkpt lat="44.20517" lon="0.86705">
        <ele>160.2</ele>
        <time>2016-07-23T09:00:23Z</time>
      </trkpt>
      <trkpt lat="44.20522" lon="0.86694">
        <ele>160.2</ele>
        <time>2016-07-23T09:00:33Z</time>
      </trkpt>
      <trkpt lat="44.20529" lon="0.86685">
        <ele>159.72</ele>
        <time>2016-07-23T09:00:42Z</time>
      </trkpt>
      <trkpt lat="44.20537" lon="0.86676">
        <ele>159.72</ele>
        <time>2016-07-23T09:00:52Z</time>
      </trkpt>
      <trkpt lat="44.20547" lon="0.86667">
        <ele>159.72</ele>
        <time>2016-07-23T09:01:03Z</time>
      </trkpt>
      <trkpt lat="44.20556" lon="0.86658">
        <ele>159.72</ele>
        <time>2016-07-23T09:01:13Z</time>
      </trkpt>
      <trkpt lat="44.20565" lon="0.86652">
        <ele>159.72</ele>
        <time>2016-07-23T09:01:23Z</time>
      </trkpt>
      <trkpt lat="44.20573" lon="0.86642">
        <ele>159.72</ele>
        <time>2016-07-23T09:01:32Z</time>
      </trkpt>
      <trkpt lat="44.20579" lon="0.86629">
        <ele>159.72</ele>
        <time>2016-07-23T09:01:43Z</time>
      </trkpt>
      <trkpt lat="44.20581" lon="0.86615">
        <ele>159.24</ele>
        <time>2016-07-23T09:01:53Z</time>
      </trkpt>
      <trkpt lat="44.20584" lon="0.86602">
        <ele>157.79</ele>
        <time>2016-07-23T09:02:02Z</time>
      </trkpt>
      <trkpt lat="44.20595" lon="0.86594">
        <ele>157.31</ele>
        <time>2016-07-23T09:02:18Z</time>
      </trkpt>
      <trkpt lat="44.20602" lon="0.86581">
        <ele>155.87</ele>
        <time>2016-07-23T09:02:27Z</time>
      </trkpt>
      <trkpt lat="44.20608" lon="0.86572">
        <ele>154.91</ele>
        <time>2016-07-23T09:02:37Z</time>
      </trkpt>
      <trkpt lat="44.20615" lon="0.86565">
        <ele>153.95</ele>
        <time>2016-07-23T09:02:48Z</time>
      </trkpt>
      <trkpt lat="44.20624" lon="0.86559">
        <ele>152.51</ele>
        <time>2016-07-23T09:02:57Z</time>
      </trkpt>
      <trkpt lat="44.20632" lon="0.86553">
        <ele>151.54</ele>
        <time>2016-07-23T09:03:09Z</time>
      </trkpt>
      <trkpt lat="44.20638" lon="0.86539">
        <ele>150.1</ele>
        <time>2016-07-23T09:03:24Z</time>
      </trkpt>
      <trkpt lat="44.20633" lon="0.86527">
        <ele>147.7</ele>
        <time>2016-07-23T09:03:36Z</time>
      </trkpt>
      <trkpt lat="44.20625" lon="0.86519">
        <ele>145.78</ele>
        <time>2016-07-23T09:03:48Z</time>
      </trkpt>
      <trkpt lat="44.20619" lon="0.86502">
        <ele>143.85</ele>
        <time>2016-07-23T09:04:11Z</time>
      </trkpt>
      <trkpt lat="44.20623" lon="0.8649">
        <ele>142.41</ele>
        <time>2016-07-23T09:04:25Z</time>
      </trkpt>
      <trkpt lat="44.20628" lon="0.86478">
        <ele>140.49</ele>
        <time>2016-07-23T09:04:37Z</time>
      </trkpt>
      <trkpt lat="44.20628" lon="0.86465">
        <ele>139.05</ele>
        <time>2016-07-23T09:04:50Z</time>
      </trkpt>
      <trkpt lat="44.20631" lon="0.86453">
        <ele>137.61</ele>
        <time>2016-07-23T09:05:00Z</time>
      </trkpt>
      <trkpt lat="44.20632" lon="0.8644">
        <ele>135.68</ele>
        <time>2016-07-23T09:05:14Z</time>
      </trkpt>
      <trkpt lat="44.20629" lon="0.86426">
        <ele>134.72</ele>
        <time>2016-07-23T09:05:25Z</time>
      </trkpt>
      <trkpt lat="44.20623" lon="0.86411">
        <ele>133.28</ele>
        <time>2016-07-23T09:05:39Z</time>
      </trkpt>
      <trkpt lat="44.20616" lon="0.86399">
        <ele>131.84</ele>
        <time>2016-07-23T09:05:52Z</time>
      </trkpt>
      <trkpt lat="44.20602" lon="0.86368">
        <ele>126.55</ele>
        <time>2016-07-23T09:06:28Z</time>
      </trkpt>
      <trkpt lat="44.20597" lon="0.86353">
        <ele>124.15</ele>
        <time>2016-07-23T09:06:47Z</time>
      </trkpt>
      <trkpt lat="44.20587" lon="0.86318">
        <ele>118.86</ele>
        <time>2016-07-23T09:07:29Z</time>
      </trkpt>
      <trkpt lat="44.20583" lon="0.86305">
        <ele>116.94</ele>
        <time>2016-07-23T09:07:42Z</time>
      </trkpt>
      <trkpt lat="44.20577" lon="0.86295">
        <ele>115.01</ele>
        <time>2016-07-23T09:07:54Z</time>
      </trkpt>
      <trkpt lat="44.20569" lon="0.86285">
        <ele>113.57</ele>
        <time>2016-07-23T09:08:06Z</time>
      </trkpt>
      <trkpt lat="44.2056" lon="0.86279">
        <ele>111.17</ele>
        <time>2016-07-23T09:08:18Z</time>
      </trkpt>
      <trkpt lat="44.20552" lon="0.8627">
        <ele>109.25</ele>
        <time>2016-07-23T09:08:29Z</time>
      </trkpt>
      <trkpt lat="44.20545" lon="0.86262">
        <ele>107.32</ele>
        <time>2016-07-23T09:08:42Z</time>
      </trkpt>
      <trkpt lat="44.20538" lon="0.86252">
        <ele>104.92</ele>
        <time>2016-07-23T09:08:55Z</time>
      </trkpt>
      <trkpt lat="44.2053" lon="0.86247">
        <ele>103</ele>
        <time>2016-07-23T09:09:07Z</time>
      </trkpt>
      <trkpt lat="44.20522" lon="0.86239">
        <ele>100.6</ele>
        <time>2016-07-23T09:09:18Z</time>
      </trkpt>
      <trkpt lat="44.20514" lon="0.86232">
        <ele>99.15</ele>
        <time>2016-07-23T09:09:28Z</time>
      </trkpt>
      <trkpt lat="44.20505" lon="0.86226">
        <ele>97.71</ele>
        <time>2016-07-23T09:09:40Z</time>
      </trkpt>
      <trkpt lat="44.20496" lon="0.86216">
        <ele>97.23</ele>
        <time>2016-07-23T09:09:49Z</time>
      </trkpt>
      <trkpt lat="44.20489" lon="0.86206">
        <ele>96.75</ele>
        <time>2016-07-23T09:09:58Z</time>
      </trkpt>
      <trkpt lat="44.20482" lon="0.862">
        <ele>96.27</ele>
        <time>2016-07-23T09:10:08Z</time>
      </trkpt>
      <trkpt lat="44.20481" lon="0.8619">
        <ele>95.79</ele>
        <time>2016-07-23T09:10:21Z</time>
      </trkpt>
      <trkpt lat="44.20484" lon="0.86178">
        <ele>94.83</ele>
        <time>2016-07-23T09:10:32Z</time>
      </trkpt>
      <trkpt lat="44.20488" lon="0.86167">
        <ele>93.39</ele>
        <time>2016-07-23T09:10:42Z</time>
      </trkpt>
      <trkpt lat="44.20491" lon="0.86153">
        <ele>91.94</ele>
        <time>2016-07-23T09:10:53Z</time>
      </trkpt>
      <trkpt lat="44.20493" lon="0.8614">
        <ele>91.46</ele>
        <time>2016-07-23T09:11:03Z</time>
      </trkpt>
      <trkpt lat="44.20495" lon="0.86128">
        <ele>90.02</ele>
        <time>2016-07-23T09:11:12Z</time>
      </trkpt>
      <trkpt lat="44.20496" lon="0.86116">
        <ele>89.06</ele>
        <time>2016-07-23T09:11:21Z</time>
      </trkpt>
      <trkpt lat="44.20498" lon="0.86104">
        <ele>88.58</ele>
        <time>2016-07-23T09:11:30Z</time>
      </trkpt>
      <trkpt lat="44.205" lon="0.8609">
        <ele>87.62</ele>
        <time>2016-07-23T09:11:39Z</time>
      </trkpt>
      <trkpt lat="44.20502" lon="0.86075">
        <ele>86.66</ele>
        <time>2016-07-23T09:11:49Z</time>
      </trkpt>
      <trkpt lat="44.20503" lon="0.86062">
        <ele>86.66</ele>
        <time>2016-07-23T09:11:58Z</time>
      </trkpt>
      <trkpt lat="44.20501" lon="0.86047">
        <ele>86.18</ele>
        <time>2016-07-23T09:12:09Z</time>
      </trkpt>
      <trkpt lat="44.20497" lon="0.86034">
        <ele>85.69</ele>
        <time>2016-07-23T09:12:20Z</time>
      </trkpt>
      <trkpt lat="44.20494" lon="0.86018">
        <ele>85.69</ele>
        <time>2016-07-23T09:12:32Z</time>
      </trkpt>
      <trkpt lat="44.20487" lon="0.86007">
        <ele>87.62</ele>
        <time>2016-07-23T09:12:43Z</time>
      </trkpt>
      <trkpt lat="44.20477" lon="0.86005">
        <ele>88.1</ele>
        <time>2016-07-23T09:12:56Z</time>
      </trkpt>
      <trkpt lat="44.20464" lon="0.86004">
        <ele>88.1</ele>
        <time>2016-07-23T09:13:08Z</time>
      </trkpt>
      <trkpt lat="44.20452" lon="0.86002">
        <ele>87.62</ele>
        <time>2016-07-23T09:13:19Z</time>
      </trkpt>
      <trkpt lat="44.20442" lon="0.86">
        <ele>87.62</ele>
        <time>2016-07-23T09:13:28Z</time>
      </trkpt>
      <trkpt lat="44.20432" lon="0.85998">
        <ele>87.62</ele>
        <time>2016-07-23T09:13:37Z</time>
      </trkpt>
      <trkpt lat="44.20423" lon="0.85996">
        <ele>86.66</ele>
        <time>2016-07-23T09:13:47Z</time>
      </trkpt>
      <trkpt lat="44.20413" lon="0.85995">
        <ele>86.18</ele>
        <time>2016-07-23T09:13:56Z</time>
      </trkpt>
      <trkpt lat="44.20403" lon="0.85994">
        <ele>86.18</ele>
        <time>2016-07-23T09:14:05Z</time>
      </trkpt>
      <trkpt lat="44.20395" lon="0.85992">
        <ele>86.18</ele>
        <time>2016-07-23T09:14:14Z</time>
      </trkpt>
      <trkpt lat="44.20384" lon="0.85989">
        <ele>86.18</ele>
        <time>2016-07-23T09:14:25Z</time>
      </trkpt>
      <trkpt lat="44.20375" lon="0.85986">
        <ele>85.69</ele>
        <time>2016-07-23T09:14:34Z</time>
      </trkpt>
      <trkpt lat="44.20366" lon="0.85983">
        <ele>85.69</ele>
        <time>2016-07-23T09:14:44Z</time>
      </trkpt>
      <trkpt lat="44.20357" lon="0.85981">
        <ele>85.69</ele>
        <time>2016-07-23T09:14:53Z</time>
      </trkpt>
      <trkpt lat="44.20347" lon="0.85978">
        <ele>85.69</ele>
        <time>2016-07-23T09:15:02Z</time>
      </trkpt>
      <trkpt lat="44.20337" lon="0.85977">
        <ele>85.69</ele>
        <time>2016-07-23T09:15:11Z</time>
      </trkpt>
      <trkpt lat="44.20327" lon="0.85974">
        <ele>85.69</ele>
        <time>2016-07-23T09:15:20Z</time>
      </trkpt>
      <trkpt lat="44.20318" lon="0.85972">
        <ele>85.69</ele>
        <time>2016-07-23T09:15:29Z</time>
      </trkpt>
      <trkpt lat="44.20309" lon="0.8597">
        <ele>85.69</ele>
        <time>2016-07-23T09:15:40Z</time>
      </trkpt>
      <trkpt lat="44.20298" lon="0.85968">
        <ele>85.69</ele>
        <time>2016-07-23T09:15:49Z</time>
      </trkpt>
      <trkpt lat="44.20289" lon="0.85965">
        <ele>85.69</ele>
        <time>2016-07-23T09:15:58Z</time>
      </trkpt>
      <trkpt lat="44.2028" lon="0.85961">
        <ele>87.14</ele>
        <time>2016-07-23T09:16:07Z</time>
      </trkpt>
      <trkpt lat="44.20271" lon="0.85957">
        <ele>87.14</ele>
        <time>2016-07-23T09:16:16Z</time>
      </trkpt>
      <trkpt lat="44.20262" lon="0.85953">
        <ele>87.14</ele>
        <time>2016-07-23T09:16:25Z</time>
      </trkpt>
      <trkpt lat="44.20253" lon="0.85949">
        <ele>87.14</ele>
        <time>2016-07-23T09:16:35Z</time>
      </trkpt>
      <trkpt lat="44.20244" lon="0.85945">
        <ele>87.14</ele>
        <time>2016-07-23T09:16:43Z</time>
      </trkpt>
      <trkpt lat="44.20235" lon="0.85942">
        <ele>87.14</ele>
        <time>2016-07-23T09:16:52Z</time>
      </trkpt>
      <trkpt lat="44.20226" lon="0.85938">
        <ele>85.69</ele>
        <time>2016-07-23T09:17:01Z</time>
      </trkpt>
      <trkpt lat="44.20216" lon="0.85936">
        <ele>85.69</ele>
        <time>2016-07-23T09:17:11Z</time>
      </trkpt>
      <trkpt lat="44.20207" lon="0.85933">
        <ele>85.21</ele>
        <time>2016-07-23T09:17:20Z</time>
      </trkpt>
      <trkpt lat="44.20197" lon="0.85931">
        <ele>85.21</ele>
        <time>2016-07-23T09:17:30Z</time>
      </trkpt>
      <trkpt lat="44.20187" lon="0.85928">
        <ele>85.21</ele>
        <time>2016-07-23T09:17:39Z</time>
      </trkpt>
      <trkpt lat="44.20177" lon="0.85926">
        <ele>84.73</ele>
        <time>2016-07-23T09:17:49Z</time>
      </trkpt>
      <trkpt lat="44.20168" lon="0.85922">
        <ele>84.73</ele>
        <time>2016-07-23T09:17:57Z</time>
      </trkpt>
      <trkpt lat="44.20159" lon="0.8592">
        <ele>84.25</ele>
        <time>2016-07-23T09:18:06Z</time>
      </trkpt>
      <trkpt lat="44.2015" lon="0.85917">
        <ele>84.25</ele>
        <time>2016-07-23T09:18:15Z</time>
      </trkpt>
      <trkpt lat="44.20141" lon="0.85914">
        <ele>83.77</ele>
        <time>2016-07-23T09:18:24Z</time>
      </trkpt>
      <trkpt lat="44.20133" lon="0.85912">
        <ele>83.77</ele>
        <time>2016-07-23T09:18:32Z</time>
      </trkpt>
      <trkpt lat="44.20123" lon="0.85909">
        <ele>84.25</ele>
        <time>2016-07-23T09:18:42Z</time>
      </trkpt>
      <trkpt lat="44.20114" lon="0.85906">
        <ele>83.77</ele>
        <time>2016-07-23T09:18:50Z</time>
      </trkpt>
      <trkpt lat="44.20105" lon="0.85903">
        <ele>83.77</ele>
        <time>2016-07-23T09:19:00Z</time>
      </trkpt>
      <trkpt lat="44.20096" lon="0.859">
        <ele>83.77</ele>
        <time>2016-07-23T09:19:08Z</time>
      </trkpt>
      <trkpt lat="44.20087" lon="0.85895">
        <ele>82.81</ele>
        <time>2016-07-23T09:19:17Z</time>
      </trkpt>
      <trkpt lat="44.20079" lon="0.8589">
        <ele>82.81</ele>
        <time>2016-07-23T09:19:27Z</time>
      </trkpt>
      <trkpt lat="44.20071" lon="0.85883">
        <ele>82.81</ele>
        <time>2016-07-23T09:19:36Z</time>
      </trkpt>
      <trkpt lat="44.20063" lon="0.85876">
        <ele>82.81</ele>
        <time>2016-07-23T09:19:46Z</time>
      </trkpt>
      <trkpt lat="44.20056" lon="0.85867">
        <ele>82.81</ele>
        <time>2016-07-23T09:19:55Z</time>
      </trkpt>
      <trkpt lat="44.2005" lon="0.85857">
        <ele>82.81</ele>
        <time>2016-07-23T09:20:05Z</time>
      </trkpt>
      <trkpt lat="44.20043" lon="0.85848">
        <ele>82.81</ele>
        <time>2016-07-23T09:20:14Z</time>
      </trkpt>
      <trkpt lat="44.20036" lon="0.85839">
        <ele>83.77</ele>
        <time>2016-07-23T09:20:24Z</time>
      </trkpt>
      <trkpt lat="44.2003" lon="0.85829">
        <ele>83.77</ele>
        <time>2016-07-23T09:20:34Z</time>
      </trkpt>
      <trkpt lat="44.20024" lon="0.85819">
        <ele>84.73</ele>
        <time>2016-07-23T09:20:43Z</time>
      </trkpt>
      <trkpt lat="44.20015" lon="0.8581">
        <ele>84.73</ele>
        <time>2016-07-23T09:20:54Z</time>
      </trkpt>
      <trkpt lat="44.20008" lon="0.85802">
        <ele>84.73</ele>
        <time>2016-07-23T09:21:05Z</time>
      </trkpt>
      <trkpt lat="44.20001" lon="0.85792">
        <ele>85.21</ele>
        <time>2016-07-23T09:21:15Z</time>
      </trkpt>
      <trkpt lat="44.19993" lon="0.8578">
        <ele>85.69</ele>
        <time>2016-07-23T09:21:26Z</time>
      </trkpt>
      <trkpt lat="44.19987" lon="0.85771">
        <ele>85.69</ele>
        <time>2016-07-23T09:21:36Z</time>
      </trkpt>
      <trkpt lat="44.1998" lon="0.85761">
        <ele>86.18</ele>
        <time>2016-07-23T09:21:47Z</time>
      </trkpt>
      <trkpt lat="44.19973" lon="0.85749">
        <ele>86.18</ele>
        <time>2016-07-23T09:21:59Z</time>
      </trkpt>
      <trkpt lat="44.19965" lon="0.85734">
        <ele>86.66</ele>
        <time>2016-07-23T09:22:58Z</time>
      </trkpt>
      <trkpt lat="44.19955" lon="0.85726">
        <ele>87.62</ele>
        <time>2016-07-23T09:23:14Z</time>
      </trkpt>
      <trkpt lat="44.19944" lon="0.85719">
        <ele>88.58</ele>
        <time>2016-07-23T09:23:26Z</time>
      </trkpt>
      <trkpt lat="44.19936" lon="0.85713">
        <ele>89.06</ele>
        <time>2016-07-23T09:23:42Z</time>
      </trkpt>
      <trkpt lat="44.19926" lon="0.85705">
        <ele>89.06</ele>
        <time>2016-07-23T09:23:53Z</time>
      </trkpt>
      <trkpt lat="44.19928" lon="0.85694">
        <ele>89.54</ele>
        <time>2016-07-23T09:24:04Z</time>
      </trkpt>
      <trkpt lat="44.19935" lon="0.85682">
        <ele>90.98</ele>
        <time>2016-07-23T09:24:19Z</time>
      </trkpt>
      <trkpt lat="44.19944" lon="0.85669">
        <ele>91.94</ele>
        <time>2016-07-23T09:25:09Z</time>
      </trkpt>
      <trkpt lat="44.1995" lon="0.85659">
        <ele>92.9</ele>
        <time>2016-07-23T09:25:23Z</time>
      </trkpt>
      <trkpt lat="44.19957" lon="0.8565">
        <ele>94.35</ele>
        <time>2016-07-23T09:25:35Z</time>
      </trkpt>
      <trkpt lat="44.19965" lon="0.85643">
        <ele>95.31</ele>
        <time>2016-07-23T09:25:48Z</time>
      </trkpt>
      <trkpt lat="44.19972" lon="0.85632">
        <ele>95.79</ele>
        <time>2016-07-23T09:26:00Z</time>
      </trkpt>
      <trkpt lat="44.19994" lon="0.85627">
        <ele>96.27</ele>
        <time>2016-07-23T09:26:37Z</time>
      </trkpt>
      <trkpt lat="44.20002" lon="0.85616">
        <ele>96.27</ele>
        <time>2016-07-23T09:26:47Z</time>
      </trkpt>
      <trkpt lat="44.20007" lon="0.85602">
        <ele>97.23</ele>
        <time>2016-07-23T09:27:06Z</time>
      </trkpt>
      <trkpt lat="44.20011" lon="0.8559">
        <ele>97.71</ele>
        <time>2016-07-23T09:27:21Z</time>
      </trkpt>
      <trkpt lat="44.20018" lon="0.85582">
        <ele>98.67</ele>
        <time>2016-07-23T09:27:34Z</time>
      </trkpt>
      <trkpt lat="44.20026" lon="0.85573">
        <ele>99.63</ele>
        <time>2016-07-23T09:27:47Z</time>
      </trkpt>
      <trkpt lat="44.20032" lon="0.85565">
        <ele>100.11</ele>
        <time>2016-07-23T09:27:59Z</time>
      </trkpt>
      <trkpt lat="44.20038" lon="0.85556">
        <ele>100.6</ele>
        <time>2016-07-23T09:28:11Z</time>
      </trkpt>
      <trkpt lat="44.20045" lon="0.85548">
        <ele>101.08</ele>
        <time>2016-07-23T09:28:22Z</time>
      </trkpt>
      <trkpt lat="44.20052" lon="0.85539">
        <ele>102.04</ele>
        <time>2016-07-23T09:28:36Z</time>
      </trkpt>
      <trkpt lat="44.2006" lon="0.8553">
        <ele>103</ele>
        <time>2016-07-23T09:28:48Z</time>
      </trkpt>
      <trkpt lat="44.20065" lon="0.85521">
        <ele>103.48</ele>
        <time>2016-07-23T09:29:00Z</time>
      </trkpt>
      <trkpt lat="44.20071" lon="0.85511">
        <ele>104.44</ele>
        <time>2016-07-23T09:29:13Z</time>
      </trkpt>
      <trkpt lat="44.20079" lon="0.85501">
        <ele>105.4</ele>
        <time>2016-07-23T09:29:29Z</time>
      </trkpt>
      <trkpt lat="44.20087" lon="0.85491">
        <ele>105.88</ele>
        <time>2016-07-23T09:29:43Z</time>
      </trkpt>
      <trkpt lat="44.20095" lon="0.85481">
        <ele>106.36</ele>
        <time>2016-07-23T09:29:58Z</time>
      </trkpt>
      <trkpt lat="44.20102" lon="0.85468">
        <ele>107.32</ele>
        <time>2016-07-23T09:30:13Z</time>
      </trkpt>
      <trkpt lat="44.20123" lon="0.85438">
        <ele>110.69</ele>
        <time>2016-07-23T09:31:02Z</time>
      </trkpt>
      <trkpt lat="44.20134" lon="0.85415">
        <ele>113.57</ele>
        <time>2016-07-23T09:31:43Z</time>
      </trkpt>
      <trkpt lat="44.20138" lon="0.85394">
        <ele>116.46</ele>
        <time>2016-07-23T09:32:14Z</time>
      </trkpt>
      <trkpt lat="44.20139" lon="0.85381">
        <ele>118.38</ele>
        <time>2016-07-23T09:32:33Z</time>
      </trkpt>
      <trkpt lat="44.20143" lon="0.85371">
        <ele>119.82</ele>
        <time>2016-07-23T09:32:50Z</time>
      </trkpt>
      <trkpt lat="44.20145" lon="0.85361">
        <ele>121.26</ele>
        <time>2016-07-23T09:33:05Z</time>
      </trkpt>
      <trkpt lat="44.20152" lon="0.85352">
        <ele>122.71</ele>
        <time>2016-07-23T09:33:20Z</time>
      </trkpt>
      <trkpt lat="44.20157" lon="0.85342">
        <ele>123.19</ele>
        <time>2016-07-23T09:33:34Z</time>
      </trkpt>
      <trkpt lat="44.20163" lon="0.85331">
        <ele>124.63</ele>
        <time>2016-07-23T09:33:47Z</time>
      </trkpt>
      <trkpt lat="44.20169" lon="0.8532">
        <ele>125.11</ele>
        <time>2016-07-23T09:34:01Z</time>
      </trkpt>
      <trkpt lat="44.20174" lon="0.8531">
        <ele>126.07</ele>
        <time>2016-07-23T09:34:14Z</time>
      </trkpt>
      <trkpt lat="44.20179" lon="0.85299">
        <ele>127.03</ele>
        <time>2016-07-23T09:34:30Z</time>
      </trkpt>
      <trkpt lat="44.20179" lon="0.85289">
        <ele>127.99</ele>
        <time>2016-07-23T09:35:12Z</time>
      </trkpt>
      <trkpt lat="44.20171" lon="0.85284">
        <ele>127.99</ele>
        <time>2016-07-23T09:35:23Z</time>
      </trkpt>
      <trkpt lat="44.20162" lon="0.85279">
        <ele>127.99</ele>
        <time>2016-07-23T09:35:34Z</time>
      </trkpt>
      <trkpt lat="44.20153" lon="0.85275">
        <ele>127.51</ele>
        <time>2016-07-23T09:35:45Z</time>
      </trkpt>
      <trkpt lat="44.20144" lon="0.85271">
        <ele>127.51</ele>
        <time>2016-07-23T09:35:55Z</time>
      </trkpt>
      <trkpt lat="44.20134" lon="0.85266">
        <ele>127.51</ele>
        <time>2016-07-23T09:36:04Z</time>
      </trkpt>
      <trkpt lat="44.20125" lon="0.85263">
        <ele>127.03</ele>
        <time>2016-07-23T09:36:15Z</time>
      </trkpt>
      <trkpt lat="44.20116" lon="0.85259">
        <ele>126.55</ele>
        <time>2016-07-23T09:36:26Z</time>
      </trkpt>
      <trkpt lat="44.20107" lon="0.85255">
        <ele>126.55</ele>
        <time>2016-07-23T09:36:35Z</time>
      </trkpt>
      <trkpt lat="44.20097" lon="0.8525">
        <ele>126.07</ele>
        <time>2016-07-23T09:36:47Z</time>
      </trkpt>
      <trkpt lat="44.20087" lon="0.85246">
        <ele>126.07</ele>
        <time>2016-07-23T09:36:58Z</time>
      </trkpt>
      <trkpt lat="44.20077" lon="0.85241">
        <ele>125.59</ele>
        <time>2016-07-23T09:37:08Z</time>
      </trkpt>
      <trkpt lat="44.20067" lon="0.85234">
        <ele>125.11</ele>
        <time>2016-07-23T09:37:20Z</time>
      </trkpt>
      <trkpt lat="44.20057" lon="0.85226">
        <ele>124.15</ele>
        <time>2016-07-23T09:37:31Z</time>
      </trkpt>
      <trkpt lat="44.20049" lon="0.8522">
        <ele>123.19</ele>
        <time>2016-07-23T09:37:40Z</time>
      </trkpt>
      <trkpt lat="44.20041" lon="0.85212">
        <ele>123.19</ele>
        <time>2016-07-23T09:37:49Z</time>
      </trkpt>
      <trkpt lat="44.20033" lon="0.85203">
        <ele>123.19</ele>
        <time>2016-07-23T09:38:00Z</time>
      </trkpt>
      <trkpt lat="44.20026" lon="0.85194">
        <ele>122.71</ele>
        <time>2016-07-23T09:38:09Z</time>
      </trkpt>
      <trkpt lat="44.2002" lon="0.85182">
        <ele>121.74</ele>
        <time>2016-07-23T09:38:19Z</time>
      </trkpt>
      <trkpt lat="44.20013" lon="0.85172">
        <ele>122.22</ele>
        <time>2016-07-23T09:38:30Z</time>
      </trkpt>
      <trkpt lat="44.20007" lon="0.85163">
        <ele>121.74</ele>
        <time>2016-07-23T09:38:38Z</time>
      </trkpt>
      <trkpt lat="44.20001" lon="0.85153">
        <ele>121.26</ele>
        <time>2016-07-23T09:38:48Z</time>
      </trkpt>
      <trkpt lat="44.19995" lon="0.85143">
        <ele>121.26</ele>
        <time>2016-07-23T09:38:56Z</time>
      </trkpt>
      <trkpt lat="44.19989" lon="0.85135">
        <ele>120.78</ele>
        <time>2016-07-23T09:39:04Z</time>
      </trkpt>
      <trkpt lat="44.19983" lon="0.85126">
        <ele>120.78</ele>
        <time>2016-07-23T09:39:15Z</time>
      </trkpt>
      <trkpt lat="44.19976" lon="0.85117">
        <ele>120.3</ele>
        <time>2016-07-23T09:39:26Z</time>
      </trkpt>
      <trkpt lat="44.19969" lon="0.85105">
        <ele>120.3</ele>
        <time>2016-07-23T09:39:37Z</time>
      </trkpt>
      <trkpt lat="44.19962" lon="0.85096">
        <ele>120.78</ele>
        <time>2016-07-23T09:39:47Z</time>
      </trkpt>
      <trkpt lat="44.19956" lon="0.85085">
        <ele>120.3</ele>
        <time>2016-07-23T09:39:58Z</time>
      </trkpt>
      <trkpt lat="44.19951" lon="0.85074">
        <ele>120.3</ele>
        <time>2016-07-23T09:40:09Z</time>
      </trkpt>
      <trkpt lat="44.19944" lon="0.85063">
        <ele>120.3</ele>
        <time>2016-07-23T09:40:21Z</time>
      </trkpt>
      <trkpt lat="44.19938" lon="0.85052">
        <ele>122.22</ele>
        <time>2016-07-23T09:40:32Z</time>
      </trkpt>
      <trkpt lat="44.19933" lon="0.85042">
        <ele>123.19</ele>
        <time>2016-07-23T09:40:45Z</time>
      </trkpt>
      <trkpt lat="44.19926" lon="0.85031">
        <ele>124.15</ele>
        <time>2016-07-23T09:41:00Z</time>
      </trkpt>
      <trkpt lat="44.19919" lon="0.85022">
        <ele>125.59</ele>
        <time>2016-07-23T09:41:15Z</time>
      </trkpt>
      <trkpt lat="44.19912" lon="0.8501">
        <ele>127.03</ele>
        <time>2016-07-23T09:41:42Z</time>
      </trkpt>
      <trkpt lat="44.19908" lon="0.84998">
        <ele>128.47</ele>
        <time>2016-07-23T09:41:58Z</time>
      </trkpt>
      <trkpt lat="44.19911" lon="0.84977">
        <ele>128.95</ele>
        <time>2016-07-23T09:42:15Z</time>
      </trkpt>
      <trkpt lat="44.19911" lon="0.84956">
        <ele>128.95</ele>
        <time>2016-07-23T09:42:30Z</time>
      </trkpt>
      <trkpt lat="44.1991" lon="0.84939">
        <ele>128.95</ele>
        <time>2016-07-23T09:42:41Z</time>
      </trkpt>
      <trkpt lat="44.1991" lon="0.84925">
        <ele>127.03</ele>
        <time>2016-07-23T09:42:50Z</time>
      </trkpt>
      <trkpt lat="44.19909" lon="0.8491">
        <ele>127.03</ele>
        <time>2016-07-23T09:43:01Z</time>
      </trkpt>
      <trkpt lat="44.1991" lon="0.84895">
        <ele>126.55</ele>
        <time>2016-07-23T09:43:10Z</time>
      </trkpt>
      <trkpt lat="44.1991" lon="0.84881">
        <ele>126.55</ele>
        <time>2016-07-23T09:43:19Z</time>
      </trkpt>
      <trkpt lat="44.1991" lon="0.84867">
        <ele>126.55</ele>
        <time>2016-07-23T09:43:28Z</time>
      </trkpt>
      <trkpt lat="44.1991" lon="0.84852">
        <ele>126.55</ele>
        <time>2016-07-23T09:43:39Z</time>
      </trkpt>
      <trkpt lat="44.1991" lon="0.84838">
        <ele>126.55</ele>
        <time>2016-07-23T09:43:47Z</time>
      </trkpt>
      <trkpt lat="44.19908" lon="0.84827">
        <ele>126.07</ele>
        <time>2016-07-23T09:43:56Z</time>
      </trkpt>
      <trkpt lat="44.19906" lon="0.84815">
        <ele>125.59</ele>
        <time>2016-07-23T09:44:05Z</time>
      </trkpt>
      <trkpt lat="44.199" lon="0.84805">
        <ele>124.63</ele>
        <time>2016-07-23T09:44:15Z</time>
      </trkpt>
      <trkpt lat="44.19894" lon="0.84795">
        <ele>124.15</ele>
        <time>2016-07-23T09:44:26Z</time>
      </trkpt>
      <trkpt lat="44.19887" lon="0.84786">
        <ele>122.71</ele>
        <time>2016-07-23T09:44:46Z</time>
      </trkpt>
      <trkpt lat="44.19887" lon="0.84773">
        <ele>121.26</ele>
        <time>2016-07-23T09:44:58Z</time>
      </trkpt>
      <trkpt lat="44.1989" lon="0.84758">
        <ele>119.34</ele>
        <time>2016-07-23T09:45:11Z</time>
      </trkpt>
      <trkpt lat="44.19892" lon="0.84744">
        <ele>118.38</ele>
        <time>2016-07-23T09:45:21Z</time>
      </trkpt>
      <trkpt lat="44.19894" lon="0.8473">
        <ele>117.42</ele>
        <time>2016-07-23T09:45:30Z</time>
      </trkpt>
      <trkpt lat="44.19893" lon="0.84716">
        <ele>116.94</ele>
        <time>2016-07-23T09:45:38Z</time>
      </trkpt>
      <trkpt lat="44.19889" lon="0.84705">
        <ele>116.46</ele>
        <time>2016-07-23T09:45:47Z</time>
      </trkpt>
      <trkpt lat="44.1988" lon="0.84697">
        <ele>115.01</ele>
        <time>2016-07-23T09:45:58Z</time>
      </trkpt>
      <trkpt lat="44.1987" lon="0.84693">
        <ele>114.05</ele>
        <time>2016-07-23T09:46:09Z</time>
      </trkpt>
      <trkpt lat="44.19861" lon="0.8469">
        <ele>112.61</ele>
        <time>2016-07-23T09:46:24Z</time>
      </trkpt>
      <trkpt lat="44.19852" lon="0.84688">
        <ele>111.17</ele>
        <time>2016-07-23T09:46:35Z</time>
      </trkpt>
      <trkpt lat="44.19843" lon="0.84683">
        <ele>108.77</ele>
        <time>2016-07-23T09:46:45Z</time>
      </trkpt>
      <trkpt lat="44.19833" lon="0.8468">
        <ele>107.81</ele>
        <time>2016-07-23T09:46:56Z</time>
      </trkpt>
      <trkpt lat="44.19823" lon="0.84675">
        <ele>105.88</ele>
        <time>2016-07-23T09:47:08Z</time>
      </trkpt>
      <trkpt lat="44.19813" lon="0.84671">
        <ele>103.48</ele>
        <time>2016-07-23T09:47:22Z</time>
      </trkpt>
      <trkpt lat="44.19804" lon="0.84668">
        <ele>102.04</ele>
        <time>2016-07-23T09:47:33Z</time>
      </trkpt>
      <trkpt lat="44.19795" lon="0.84665">
        <ele>100.6</ele>
        <time>2016-07-23T09:47:44Z</time>
      </trkpt>
      <trkpt lat="44.19786" lon="0.84662">
        <ele>98.67</ele>
        <time>2016-07-23T09:47:55Z</time>
      </trkpt>
      <trkpt lat="44.19777" lon="0.8466">
        <ele>97.23</ele>
        <time>2016-07-23T09:48:06Z</time>
      </trkpt>
      <trkpt lat="44.19769" lon="0.84656">
        <ele>95.79</ele>
        <time>2016-07-23T09:48:16Z</time>
      </trkpt>
      <trkpt lat="44.19759" lon="0.84652">
        <ele>93.87</ele>
        <time>2016-07-23T09:48:27Z</time>
      </trkpt>
      <trkpt lat="44.1975" lon="0.84649">
        <ele>92.42</ele>
        <time>2016-07-23T09:48:39Z</time>
      </trkpt>
      <trkpt lat="44.19741" lon="0.84646">
        <ele>90.02</ele>
        <time>2016-07-23T09:48:51Z</time>
      </trkpt>
      <trkpt lat="44.19731" lon="0.84641">
        <ele>88.58</ele>
        <time>2016-07-23T09:49:03Z</time>
      </trkpt>
      <trkpt lat="44.19723" lon="0.84638">
        <ele>87.62</ele>
        <time>2016-07-23T09:49:13Z</time>
      </trkpt>
      <trkpt lat="44.19713" lon="0.84632">
        <ele>85.21</ele>
        <time>2016-07-23T09:49:24Z</time>
      </trkpt>
      <trkpt lat="44.19704" lon="0.84628">
        <ele>84.25</ele>
        <time>2016-07-23T09:49:35Z</time>
      </trkpt>
      <trkpt lat="44.19695" lon="0.84623">
        <ele>83.29</ele>
        <time>2016-07-23T09:49:46Z</time>
      </trkpt>
      <trkpt lat="44.19687" lon="0.84618">
        <ele>81.85</ele>
        <time>2016-07-23T09:49:55Z</time>
      </trkpt>
      <trkpt lat="44.19676" lon="0.84615">
        <ele>79.93</ele>
        <time>2016-07-23T09:50:07Z</time>
      </trkpt>
      <trkpt lat="44.19667" lon="0.84611">
        <ele>78.48</ele>
        <time>2016-07-23T09:50:17Z</time>
      </trkpt>
      <trkpt lat="44.19659" lon="0.84605">
        <ele>77.52</ele>
        <time>2016-07-23T09:50:29Z</time>
      </trkpt>
      <trkpt lat="44.19659" lon="0.84586">
        <ele>77.04</ele>
        <time>2016-07-23T09:50:44Z</time>
      </trkpt>
      <trkpt lat="44.19658" lon="0.84571">
        <ele>76.56</ele>
        <time>2016-07-23T09:50:54Z</time>
      </trkpt>
      <trkpt lat="44.19658" lon="0.84556">
        <ele>76.08</ele>
        <time>2016-07-23T09:51:04Z</time>
      </trkpt>
      <trkpt lat="44.19658" lon="0.84541">
        <ele>75.6</ele>
        <time>2016-07-23T09:51:13Z</time>
      </trkpt>
      <trkpt lat="44.19661" lon="0.84529">
        <ele>75.6</ele>
        <time>2016-07-23T09:51:20Z</time>
      </trkpt>
      <trkpt lat="44.19661" lon="0.84514">
        <ele>74.64</ele>
        <time>2016-07-23T09:51:33Z</time>
      </trkpt>
      <trkpt lat="44.19661" lon="0.84497">
        <ele>74.64</ele>
        <time>2016-07-23T09:51:45Z</time>
      </trkpt>
      <trkpt lat="44.19661" lon="0.84481">
        <ele>74.16</ele>
        <time>2016-07-23T09:51:55Z</time>
      </trkpt>
      <trkpt lat="44.19663" lon="0.84464">
        <ele>73.68</ele>
        <time>2016-07-23T09:52:07Z</time>
      </trkpt>
      <trkpt lat="44.19662" lon="0.84449">
        <ele>73.68</ele>
        <time>2016-07-23T09:52:19Z</time>
      </trkpt>
      <trkpt lat="44.19662" lon="0.84428">
        <ele>73.2</ele>
        <time>2016-07-23T09:52:33Z</time>
      </trkpt>
      <trkpt lat="44.19665" lon="0.8441">
        <ele>73.2</ele>
        <time>2016-07-23T09:52:47Z</time>
      </trkpt>
      <trkpt lat="44.19673" lon="0.84403">
        <ele>73.2</ele>
        <time>2016-07-23T09:53:06Z</time>
      </trkpt>
      <trkpt lat="44.19681" lon="0.84396">
        <ele>73.2</ele>
        <time>2016-07-23T09:53:16Z</time>
      </trkpt>
      <trkpt lat="44.1969" lon="0.84387">
        <ele>73.68</ele>
        <time>2016-07-23T09:53:31Z</time>
      </trkpt>
      <trkpt lat="44.19698" lon="0.84378">
        <ele>73.68</ele>
        <time>2016-07-23T09:53:41Z</time>
      </trkpt>
      <trkpt lat="44.19702" lon="0.84367">
        <ele>73.68</ele>
        <time>2016-07-23T09:53:50Z</time>
      </trkpt>
      <trkpt lat="44.19703" lon="0.84353">
        <ele>73.68</ele>
        <time>2016-07-23T09:54:01Z</time>
      </trkpt>
      <trkpt lat="44.19706" lon="0.84339">
        <ele>73.68</ele>
        <time>2016-07-23T09:54:13Z</time>
      </trkpt>
      <trkpt lat="44.19706" lon="0.84336">
        <ele>74.16</ele>
        <time>2016-07-23T09:54:16Z</time>
      </trkpt>
    </trkseg>
  </trk>
</gpx>